Observation data for Wellington on 04/16/2021      Previous  Date  Next       Current Mesonet Observations  Soil Data  Daily Summary Page  Observations in Plain Language
KWE3 160500Z 09011KT 07/07 A2992 RMK A01 T00740070  RH  098%=      5-min Rain = 0
KWE3 160501Z 08011KT 07/07 A2992 RMK A01 T00740070  RH  098%=      5-min Rain = 0
KWE3 160502Z 08011KT 07/07 A2992 RMK A01 T00740070  RH  098%=      5-min Rain = 0
KWE3 160503Z 08011KT 07/07 A2992 RMK A01 T00740070  RH  098%=      5-min Rain = 0
KWE3 160504Z 08010KT 07/07 A2992 RMK A01 T00740070  RH  098%=      5-min Rain = 0
KWE3 160505Z 08012KT 07/07 A2992 RMK A01 T00740070  RH  098%=      5-min Rain = 0
KWE3 160506Z 08012KT 07/07 A2992 RMK A01 T00740071  RH  098%=      5-min Rain = 0
KWE3 160507Z 08011KT 07/07 A2992 RMK A01 T00740071  RH  098%=      5-min Rain = 0
KWE3 160508Z 08011KT 07/07 A2992 RMK A01 T00740071  RH  098%=      5-min Rain = 0
KWE3 160509Z 07011KT 07/07 A2992 RMK A01 T00740071  RH  098%=      5-min Rain = 0
KWE3 160510Z 07012KT 07/07 A2992 RMK A01 T00740071  RH  098%=      5-min Rain = 0
KWE3 160511Z 07012KT 07/07 A2992 RMK A01 T00740071  RH  098%=      5-min Rain = 0
KWE3 160512Z 07013KT 07/07 A2992 RMK A01 T00740071  RH  098%=      5-min Rain = 0
KWE3 160513Z 08012KT 07/07 A2992 RMK A01 T00740070  RH  098%=      5-min Rain = 0
KWE3 160514Z 08012KT 07/07 A2992 RMK A01 T00740070  RH  098%=      5-min Rain = 0
KWE3 160515Z 08011KT 07/07 A2992 RMK A01 T00740070  RH  098%=      5-min Rain = 0
KWE3 160516Z 08011KT 07/07 A2992 RMK A01 T00740070  RH  098%=      5-min Rain = 0
KWE3 160517Z 08010KT 07/07 A2992 RMK A01 T00740070  RH  098%=      5-min Rain = 0
KWE3 160518Z 08011KT 07/07 A2992 RMK A01 T00740070  RH  098%=      5-min Rain = 0
KWE3 160519Z 08010KT 07/07 A2992 RMK A01 T00740070  RH  098%=      5-min Rain = 0
KWE3 160520Z 08011KT 07/07 A2991 RMK A01 T00740071  RH  098%=      5-min Rain = 0
KWE3 160521Z 08010KT 07/07 A2991 RMK A01 T00740071  RH  098%=      5-min Rain = 0
KWE3 160522Z 08010KT 07/07 A2991 RMK A01 T00740071  RH  098%=      5-min Rain = 0
KWE3 160523Z 08012KT 07/07 A2991 RMK A01 T00740071  RH  098%=      5-min Rain = 0
KWE3 160524Z 08011KT 07/07 A2991 RMK A01 T00740071  RH  098%=      5-min Rain = 0
KWE3 160525Z 08013KT 07/07 A2991 RMK A01 T00740071  RH  098%=      5-min Rain = 0
KWE3 160526Z 08013KT 07/07 A2991 RMK A01 T00740071  RH  098%=      5-min Rain = 0
KWE3 160527Z 09013KT 07/07 A2991 RMK A01 T00740071  RH  098%=      5-min Rain = 0
KWE3 160528Z 08011KT 07/07 A2991 RMK A01 T00740071  RH  098%=      5-min Rain = 0
KWE3 160529Z 08012KT 07/07 A2991 RMK A01 T00740071  RH  098%=      5-min Rain = 0
KWE3 160530Z 07012KT 07/07 A2991 RMK A01 T00740071  RH  098%=      5-min Rain = 0
KWE3 160531Z 08012KT 07/07 A2991 RMK A01 T00740071  RH  098%=      5-min Rain = 0
KWE3 160532Z 08012KT 07/07 A2991 RMK A01 T00740071  RH  098%=      5-min Rain = 0
KWE3 160533Z 08012KT 07/07 A2991 RMK A01 T00740071  RH  098%=      5-min Rain = 0
KWE3 160534Z 08010KT 07/07 A2991 RMK A01 T00740071  RH  098%=      5-min Rain = 0
KWE3 160535Z 08011KT 07/07 A2991 RMK A01 T00740071  RH  098%=      5-min Rain = 0
KWE3 160536Z 08012KT 07/07 A2991 RMK A01 T00740071  RH  098%=      5-min Rain = 0
KWE3 160537Z 08012KT 07/07 A2991 RMK A01 T00740071  RH  098%=      5-min Rain = 0
KWE3 160538Z 08011KT 07/07 A2991 RMK A01 T00740071  RH  098%=      5-min Rain = 0
KWE3 160539Z 08011KT 07/07 A2991 RMK A01 T00740071  RH  098%=      5-min Rain = 0
KWE3 160540Z 08010KT 07/07 A2991 RMK A01 T00740071  RH  098%=      5-min Rain = 0
KWE3 160541Z 08010KT 07/07 A2991 RMK A01 T00740071  RH  098%=      5-min Rain = 0
KWE3 160542Z 08010KT 07/07 A2991 RMK A01 T00740071  RH  098%=      5-min Rain = 0
KWE3 160543Z 08008KT 07/07 A2991 RMK A01 T00740071  RH  098%=      5-min Rain = 0
KWE3 160544Z 09009KT 08/07 A2991 RMK A01 T00750072  RH  098%=      5-min Rain = 0
KWE3 160545Z 09011KT 08/07 A2991 RMK A01 T00750072  RH  098%=      5-min Rain = 0
KWE3 160546Z 09011KT 08/07 A2991 RMK A01 T00750072  RH  098%=      5-min Rain = 0
KWE3 160547Z 08010KT 08/07 A2991 RMK A01 T00750072  RH  098%=      5-min Rain = 0
KWE3 160548Z 09012KT 08/07 A2991 RMK A01 T00750072  RH  098%=      5-min Rain = 0
KWE3 160549Z 08010KT 08/07 A2991 RMK A01 T00750072  RH  098%=      5-min Rain = 0
KWE3 160550Z 08010KT 08/07 A2991 RMK A01 T00750072  RH  098%=      5-min Rain = 0
KWE3 160551Z 08011KT 08/07 A2991 RMK A01 T00750072  RH  098%=      5-min Rain = 0
KWE3 160552Z 09010KT 08/07 A2991 RMK A01 T00750072  RH  098%=      5-min Rain = 0
KWE3 160553Z 08010KT 08/07 A2991 RMK A01 T00750072  RH  098%=      5-min Rain = 0
KWE3 160554Z 08011KT 08/07 A2991 RMK A01 T00750072  RH  098%=      5-min Rain = 0
KWE3 160555Z 08011KT 08/07 A299 RMK A01 T00750072  RH  098%=      5-min Rain = 0
KWE3 160556Z 08010KT 08/07 A299 RMK A01 T00750072  RH  098%=      5-min Rain = 0
KWE3 160557Z 09009KT 08/07 A299 RMK A01 T00750072  RH  098%=      5-min Rain = 0
KWE3 160558Z 08009KT 08/07 A299 RMK A01 T00760072  RH  098%=      5-min Rain = 0
KWE3 160559Z 08011KT 08/07 A299 RMK A01 T00760072  RH  098%=      5-min Rain = 0
KWE3 160600Z 08010KT 08/07 A299 RMK A01 T00760072  RH  098%=      5-min Rain = 0
KWE3 160601Z 09009KT 08/07 A299 RMK A01 T00760072  RH  098%=      5-min Rain = 0
KWE3 160602Z 09010KT 08/07 A299 RMK A01 T00760072  RH  098%=      5-min Rain = 0
KWE3 160603Z 09008KT 08/07 A299 RMK A01 T00760073  RH  098%=      5-min Rain = 0
KWE3 160604Z 09009KT 08/07 A299 RMK A01 T00760073  RH  098%=      5-min Rain = 0
KWE3 160605Z 08011KT 08/07 A299 RMK A01 T00760073  RH  098%=      5-min Rain = 0
KWE3 160606Z 08011KT 08/07 A299 RMK A01 T00760072  RH  098%=      5-min Rain = 0
KWE3 160607Z 09011KT 08/07 A299 RMK A01 T00760072  RH  098%=      5-min Rain = 0
KWE3 160608Z 09011KT 08/07 A299 RMK A01 T00750072  RH  098%=      5-min Rain = 0
KWE3 160609Z 09010KT 08/07 A299 RMK A01 T00750072  RH  098%=      5-min Rain = 0
KWE3 160610Z 09010KT 08/07 A299 RMK A01 T00750072  RH  098%=      5-min Rain = 0
KWE3 160611Z 08011KT 08/07 A299 RMK A01 T00750072  RH  098%=      5-min Rain = 0
KWE3 160612Z 08009KT 08/07 A2989 RMK A01 T00750072  RH  098%=      5-min Rain = 0
KWE3 160613Z 08009KT 08/07 A2989 RMK A01 T00750072  RH  098%=      5-min Rain = 0
KWE3 160614Z 08009KT 08/07 A2989 RMK A01 T00750072  RH  098%=      5-min Rain = 0
KWE3 160615Z 08009KT 08/07 A2989 RMK A01 T00750072  RH  098%=      5-min Rain = 0
KWE3 160616Z 09011KT 08/07 A2989 RMK A01 T00750072  RH  098%=      5-min Rain = 0
KWE3 160617Z 08010KT 08/07 A2989 RMK A01 T00750072  RH  098%=      5-min Rain = 0
KWE3 160618Z 08011KT 08/07 A2989 RMK A01 T00750072  RH  098%=      5-min Rain = 0
KWE3 160619Z 08012KT 07/07 A2989 RMK A01 T00740071  RH  098%=      5-min Rain = 0
KWE3 160620Z 08010KT 07/07 A2989 RMK A01 T00740070  RH  098%=      5-min Rain = 0
KWE3 160621Z 08010KT 07/07 A2989 RMK A01 T00740071  RH  098%=      5-min Rain = 0
KWE3 160622Z 08011KT 07/07 A2989 RMK A01 T00740071  RH  098%=      5-min Rain = 0
KWE3 160623Z 08011KT 07/07 A2989 RMK A01 T00740071  RH  098%=      5-min Rain = 0
KWE3 160624Z 08010KT 07/07 A2989 RMK A01 T00740071  RH  098%=      5-min Rain = 0
KWE3 160625Z 08010KT 07/07 A2989 RMK A01 T00740071  RH  098%=      5-min Rain = 0
KWE3 160626Z 08009KT 07/07 A2989 RMK A01 T00740071  RH  098%=      5-min Rain = 0
KWE3 160627Z 09008KT 07/07 A2989 RMK A01 T00740072  RH  098%=      5-min Rain = 0.01
KWE3 160628Z 09009KT 07/07 A2989 RMK A01 T00740072  RH  098%=      5-min Rain = 0
KWE3 160629Z 08008KT 07/07 A2989 RMK A01 T00740072  RH  098%=      5-min Rain = 0
KWE3 160630Z 08008KT 07/07 A2989 RMK A01 T00740072  RH  098%=      5-min Rain = 0
KWE3 160631Z 08010KT 07/07 A299 RMK A01 T00740072  RH  098%=      5-min Rain = 0
KWE3 160632Z 08009KT 07/07 A299 RMK A01 T00740072  RH  098%=      5-min Rain = 0
KWE3 160633Z 08009KT 07/07 A299 RMK A01 T00740072  RH  098%=      5-min Rain = 0
KWE3 160634Z 08010KT 07/07 A299 RMK A01 T00740072  RH  098%=      5-min Rain = 0
KWE3 160635Z 08010KT 07/07 A299 RMK A01 T00740072  RH  098%=      5-min Rain = 0
KWE3 160636Z 08009KT 07/07 A299 RMK A01 T00740072  RH  098%=      5-min Rain = 0
KWE3 160637Z 08008KT 07/07 A299 RMK A01 T00740072  RH  098%=      5-min Rain = 0
KWE3 160638Z 08008KT 07/07 A299 RMK A01 T00740072  RH  098%=      5-min Rain = 0
KWE3 160639Z 08008KT 07/07 A299 RMK A01 T00740072  RH  098%=      5-min Rain = 0
KWE3 160640Z 08007KT 07/07 A299 RMK A01 T00740072  RH  098%=      5-min Rain = 0
KWE3 160641Z 08008KT 07/07 A299 RMK A01 T00740072  RH  098%=      5-min Rain = 0
KWE3 160642Z 08008KT 07/07 A299 RMK A01 T00740072  RH  098%=      5-min Rain = 0
KWE3 160643Z 08007KT 07/07 A299 RMK A01 T00740072  RH  098%=      5-min Rain = 0
KWE3 160644Z 08010KT 07/07 A299 RMK A01 T00740072  RH  098%=      5-min Rain = 0
KWE3 160645Z 09009KT 07/07 A299 RMK A01 T00740072  RH  098%=      5-min Rain = 0
KWE3 160646Z 08010KT 07/07 A299 RMK A01 T00740072  RH  098%=      5-min Rain = 0
KWE3 160647Z 09009KT 07/07 A299 RMK A01 T00740072  RH  098%=      5-min Rain = 0
KWE3 160648Z 09009KT 07/07 A299 RMK A01 T00740072  RH  099%=      5-min Rain = 0
KWE3 160649Z 09009KT 07/07 A299 RMK A01 T00740072  RH  099%=      5-min Rain = 0
KWE3 160650Z 09010KT 07/07 A299 RMK A01 T00740072  RH  099%=      5-min Rain = 0
KWE3 160651Z 08009KT 08/07 A299 RMK A01 T00750072  RH  098%=      5-min Rain = 0
KWE3 160652Z 08008KT 07/07 A299 RMK A01 T00740072  RH  099%=      5-min Rain = 0
KWE3 160653Z 08010KT 07/07 A299 RMK A01 T00740072  RH  099%=      5-min Rain = 0
KWE3 160654Z 08010KT 07/07 A299 RMK A01 T00740072  RH  099%=      5-min Rain = 0
KWE3 160655Z 08009KT 07/07 A299 RMK A01 T00740072  RH  098%=      5-min Rain = 0
KWE3 160656Z 08009KT 07/07 A299 RMK A01 T00740072  RH  098%=      5-min Rain = 0
KWE3 160657Z 08008KT 07/07 A299 RMK A01 T00740072  RH  098%=      5-min Rain = 0
KWE3 160658Z 08009KT 07/07 A299 RMK A01 T00740072  RH  099%=      5-min Rain = 0
KWE3 160659Z 07009KT 07/07 A299 RMK A01 T00740072  RH  099%=      5-min Rain = 0
KWE3 160700Z 08009KT 07/07 A299 RMK A01 T00740072  RH  099%=      5-min Rain = 0
KWE3 160701Z 08008KT 07/07 A299 RMK A01 T00740072  RH  099%=      5-min Rain = 0
KWE3 160702Z 07007KT 07/07 A299 RMK A01 T00740072  RH  099%=      5-min Rain = 0
KWE3 160703Z 07008KT 07/07 A299 RMK A01 T00740072  RH  099%=      5-min Rain = 0
KWE3 160704Z 07008KT 07/07 A299 RMK A01 T00740072  RH  099%=      5-min Rain = 0
KWE3 160705Z 07009KT 07/07 A299 RMK A01 T00740072  RH  099%=      5-min Rain = 0
KWE3 160706Z 08008KT 07/07 A299 RMK A01 T00740072  RH  099%=      5-min Rain = 0
KWE3 160707Z 08008KT 07/07 A299 RMK A01 T00740072  RH  099%=      5-min Rain = 0
KWE3 160708Z 08007KT 07/07 A299 RMK A01 T00740072  RH  099%=      5-min Rain = 0
KWE3 160709Z 07008KT 07/07 A299 RMK A01 T00740072  RH  099%=      5-min Rain = 0
KWE3 160710Z 07009KT 07/07 A299 RMK A01 T00740072  RH  099%=      5-min Rain = 0
KWE3 160711Z 07009KT 07/07 A299 RMK A01 T00740072  RH  099%=      5-min Rain = 0
KWE3 160712Z 07009KT 07/07 A2989 RMK A01 T00740072  RH  099%=      5-min Rain = 0
KWE3 160713Z 08008KT 07/07 A2989 RMK A01 T00740072  RH  099%=      5-min Rain = 0
KWE3 160714Z 07008KT 07/07 A2989 RMK A01 T00740072  RH  099%=      5-min Rain = 0
KWE3 160715Z 07008KT 08/07 A2989 RMK A01 T00750072  RH  099%=      5-min Rain = 0
KWE3 160716Z 07008KT 07/07 A2989 RMK A01 T00740072  RH  099%=      5-min Rain = 0
KWE3 160717Z 07007KT 07/07 A2989 RMK A01 T00740072  RH  099%=      5-min Rain = 0
KWE3 160718Z 07009KT 07/07 A2989 RMK A01 T00740072  RH  099%=      5-min Rain = 0
KWE3 160719Z 07007KT 08/07 A2989 RMK A01 T00750072  RH  099%=      5-min Rain = 0
KWE3 160720Z 07008KT 07/07 A2989 RMK A01 T00740072  RH  099%=      5-min Rain = 0
KWE3 160721Z 07009KT 07/07 A2989 RMK A01 T00740072  RH  099%=      5-min Rain = 0
KWE3 160722Z 07010KT 07/07 A2989 RMK A01 T00740072  RH  099%=      5-min Rain = 0
KWE3 160723Z 07009KT 07/07 A2989 RMK A01 T00740072  RH  099%=      5-min Rain = 0
KWE3 160724Z 07009KT 07/07 A2989 RMK A01 T00740072  RH  099%=      5-min Rain = 0
KWE3 160725Z 07009KT 07/07 A2989 RMK A01 T00740072  RH  099%=      5-min Rain = 0
KWE3 160726Z 07008KT 07/07 A2989 RMK A01 T00740072  RH  099%=      5-min Rain = 0
KWE3 160727Z 07008KT 07/07 A2989 RMK A01 T00740072  RH  099%=      5-min Rain = 0
KWE3 160728Z 06008KT 07/07 A2989 RMK A01 T00740072  RH  099%=      5-min Rain = 0
KWE3 160729Z 06008KT 07/07 A2989 RMK A01 T00740072  RH  099%=      5-min Rain = 0
KWE3 160730Z 07007KT 07/07 A2989 RMK A01 T00740072  RH  099%=      5-min Rain = 0
KWE3 160731Z 06008KT 07/07 A2989 RMK A01 T00740072  RH  099%=      5-min Rain = 0
KWE3 160732Z 06008KT 07/07 A2989 RMK A01 T00740072  RH  099%=      5-min Rain = 0
KWE3 160733Z 06008KT 07/07 A2989 RMK A01 T00740072  RH  099%=      5-min Rain = 0
KWE3 160734Z 06008KT 07/07 A2989 RMK A01 T00740072  RH  099%=      5-min Rain = 0
KWE3 160735Z 06008KT 07/07 A2989 RMK A01 T00740072  RH  099%=      5-min Rain = 0
KWE3 160736Z 06007KT 07/07 A2989 RMK A01 T00740072  RH  099%=      5-min Rain = 0
KWE3 160737Z 07006KT 07/07 A2989 RMK A01 T00740073  RH  099%=      5-min Rain = 0
KWE3 160738Z 06007KT 07/07 A2989 RMK A01 T00740073  RH  099%=      5-min Rain = 0
KWE3 160739Z 06008KT 07/07 A2989 RMK A01 T00740073  RH  099%=      5-min Rain = 0
KWE3 160740Z 06008KT 07/07 A2989 RMK A01 T00740072  RH  099%=      5-min Rain = 0
KWE3 160741Z 05007KT 07/07 A2989 RMK A01 T00740072  RH  099%=      5-min Rain = 0
KWE3 160742Z 05008KT 07/07 A2989 RMK A01 T00740073  RH  099%=      5-min Rain = 0
KWE3 160743Z 05008KT 07/07 A2989 RMK A01 T00740073  RH  099%=      5-min Rain = 0
KWE3 160744Z 05008KT 07/07 A2989 RMK A01 T00740072  RH  099%=      5-min Rain = 0
KWE3 160745Z 05008KT 07/07 A2989 RMK A01 T00740072  RH  099%=      5-min Rain = 0
KWE3 160746Z 05008KT 07/07 A2989 RMK A01 T00740072  RH  099%=      5-min Rain = 0
KWE3 160747Z 05009KT 07/07 A2989 RMK A01 T00740072  RH  099%=      5-min Rain = 0
KWE3 160748Z 04008KT 07/07 A2989 RMK A01 T00740072  RH  099%=      5-min Rain = 0
KWE3 160749Z 04009KT 07/07 A2989 RMK A01 T00740072  RH  099%=      5-min Rain = 0
KWE3 160750Z 04009KT 07/07 A2989 RMK A01 T00740072  RH  099%=      5-min Rain = 0
KWE3 160751Z 04008KT 07/07 A2989 RMK A01 T00740072  RH  099%=      5-min Rain = 0
KWE3 160752Z 04008KT 07/07 A2989 RMK A01 T00740072  RH  099%=      5-min Rain = 0
KWE3 160753Z 04009KT 07/07 A2989 RMK A01 T00740072  RH  099%=      5-min Rain = 0
KWE3 160754Z 04008KT 07/07 A2989 RMK A01 T00740072  RH  099%=      5-min Rain = 0
KWE3 160755Z 04006KT 07/07 A2989 RMK A01 T00740072  RH  099%=      5-min Rain = 0
KWE3 160756Z 03007KT 07/07 A2989 RMK A01 T00740072  RH  099%=      5-min Rain = 0
KWE3 160757Z 02007KT 07/07 A2989 RMK A01 T00740072  RH  099%=      5-min Rain = 0
KWE3 160758Z 02007KT 07/07 A2989 RMK A01 T00740072  RH  099%=      5-min Rain = 0
KWE3 160759Z 02007KT 07/07 A2989 RMK A01 T00740072  RH  099%=      5-min Rain = 0
KWE3 160800Z 03008KT 07/07 A2989 RMK A01 T00740072  RH  099%=      5-min Rain = 0
KWE3 160801Z 03008KT 07/07 A2989 RMK A01 T00740072  RH  099%=      5-min Rain = 0
KWE3 160802Z 03008KT 07/07 A2989 RMK A01 T00740072  RH  099%=      5-min Rain = 0
KWE3 160803Z 03008KT 07/07 A2989 RMK A01 T00740072  RH  099%=      5-min Rain = 0
KWE3 160804Z 02008KT 07/07 A2989 RMK A01 T00740072  RH  099%=      5-min Rain = 0
KWE3 160805Z 02008KT 07/07 A2989 RMK A01 T00740072  RH  099%=      5-min Rain = 0
KWE3 160806Z 02008KT 07/07 A299 RMK A01 T00740072  RH  099%=      5-min Rain = 0
KWE3 160807Z 02008KT 07/07 A299 RMK A01 T00740072  RH  099%=      5-min Rain = 0
KWE3 160808Z 02009KT 07/07 A299 RMK A01 T00730071  RH  099%=      5-min Rain = 0
KWE3 160809Z 02009KT 07/07 A299 RMK A01 T00730071  RH  099%=      5-min Rain = 0.01
KWE3 160810Z 01009KT 07/07 A299 RMK A01 T00730071  RH  099%=      5-min Rain = 0
KWE3 160811Z 02010KT 07/07 A299 RMK A01 T00730071  RH  099%=      5-min Rain = 0
KWE3 160812Z 01008KT 07/07 A299 RMK A01 T00730071  RH  099%=      5-min Rain = 0
KWE3 160813Z 01010KT 07/07 A299 RMK A01 T00740072  RH  099%=      5-min Rain = 0
KWE3 160814Z 01009KT 07/07 A299 RMK A01 T00740072  RH  099%=      5-min Rain = 0
KWE3 160815Z 01009KT 07/07 A299 RMK A01 T00740072  RH  099%=      5-min Rain = 0
KWE3 160816Z 01010KT 07/07 A299 RMK A01 T00740072  RH  099%=      5-min Rain = 0
KWE3 160817Z 01010KT 07/07 A299 RMK A01 T00740072  RH  099%=      5-min Rain = 0
KWE3 160818Z 01009KT 07/07 A299 RMK A01 T00740072  RH  099%=      5-min Rain = 0
KWE3 160819Z 36009KT 07/07 A2991 RMK A01 T00740072  RH  099%=      5-min Rain = 0
KWE3 160820Z 36011KT 07/07 A2991 RMK A01 T00740073  RH  099%=      5-min Rain = 0
KWE3 160821Z 36011KT 07/07 A2991 RMK A01 T00740073  RH  099%=      5-min Rain = 0
KWE3 160822Z 36011KT 07/07 A2991 RMK A01 T00740073  RH  099%=      5-min Rain = 0
KWE3 160823Z 00010KT 07/07 A2991 RMK A01 T00740073  RH  099%=      5-min Rain = 0
KWE3 160824Z 00011KT 07/07 A2991 RMK A01 T00740073  RH  099%=      5-min Rain = 0
KWE3 160825Z 00012KT 08/07 A2991 RMK A01 T00750073  RH  099%=      5-min Rain = 0
KWE3 160826Z 00011KT 07/07 A2991 RMK A01 T00740073  RH  099%=      5-min Rain = 0
KWE3 160827Z 01010KT 07/07 A2991 RMK A01 T00740073  RH  099%=      5-min Rain = 0
KWE3 160828Z 01011KT 08/07 A2991 RMK A01 T00750073  RH  099%=      5-min Rain = 0
KWE3 160829Z 01011KT 08/07 A2991 RMK A01 T00750073  RH  099%=      5-min Rain = 0
KWE3 160830Z 01012KT 08/07 A2991 RMK A01 T00750073  RH  099%=      5-min Rain = 0
KWE3 160831Z 01012KT 07/07 A2991 RMK A01 T00740073  RH  099%=      5-min Rain = 0
KWE3 160832Z 01013KT 07/07 A2991 RMK A01 T00740072  RH  099%=      5-min Rain = 0
KWE3 160833Z 02012KT 07/07 A2991 RMK A01 T00730071  RH  099%=      5-min Rain = 0
KWE3 160834Z 01012KT 07/07 A2991 RMK A01 T00730071  RH  099%=      5-min Rain = 0
KWE3 160835Z 01013KT 07/07 A2991 RMK A01 T00730071  RH  099%=      5-min Rain = 0
KWE3 160836Z 01012KT 07/07 A2991 RMK A01 T00730071  RH  099%=      5-min Rain = 0
KWE3 160837Z 00013KT 07/07 A2991 RMK A01 T00730071  RH  099%=      5-min Rain = 0.01
KWE3 160838Z 00013KT 07/07 A2991 RMK A01 T00730071  RH  099%=      5-min Rain = 0
KWE3 160839Z 00012KT 07/07 A2991 RMK A01 T00730071  RH  099%=      5-min Rain = 0
KWE3 160840Z 00012KT 07/07 A2991 RMK A01 T00730071  RH  099%=      5-min Rain = 0
KWE3 160841Z 00013KT 07/07 A2991 RMK A01 T00730071  RH  099%=      5-min Rain = 0
KWE3 160842Z 00012KT 07/07 A2991 RMK A01 T00730071  RH  099%=      5-min Rain = 0
KWE3 160843Z 36012KT 07/07 A2991 RMK A01 T00730071  RH  099%=      5-min Rain = 0
KWE3 160844Z 36011KT 07/07 A2992 RMK A01 T00730071  RH  099%=      5-min Rain = 0
KWE3 160845Z 35012KT 07/07 A2992 RMK A01 T00730071  RH  099%=      5-min Rain = 0
KWE3 160846Z 34012KT 07/07 A2992 RMK A01 T00730071  RH  099%=      5-min Rain = 0
KWE3 160847Z 34012KT 07/07 A2992 RMK A01 T00730071  RH  099%=      5-min Rain = 0
KWE3 160848Z 34012KT 07/07 A2992 RMK A01 T00730071  RH  099%=      5-min Rain = 0
KWE3 160849Z 34015KT 07/07 A2992 RMK A01 T00730071  RH  098%=      5-min Rain = 0
KWE3 160850Z 35015KT 07/07 A2992 RMK A01 T00720070  RH  098%=      5-min Rain = 0
KWE3 160851Z 35013KT 07/07 A2992 RMK A01 T00720069  RH  098%=      5-min Rain = 0
KWE3 160852Z 36013KT 07/07 A2992 RMK A01 T00720069  RH  098%=      5-min Rain = 0
KWE3 160853Z 36012KT 07/07 A2991 RMK A01 T00720069  RH  098%=      5-min Rain = 0
KWE3 160854Z 00014KT 07/07 A2991 RMK A01 T00720069  RH  098%=      5-min Rain = 0
KWE3 160855Z 00014KT 07/07 A2991 RMK A01 T00720069  RH  098%=      5-min Rain = 0
KWE3 160856Z 36013KT 07/07 A2991 RMK A01 T00710069  RH  098%=      5-min Rain = 0
KWE3 160857Z 00010KT 07/07 A2991 RMK A01 T00710069  RH  098%=      5-min Rain = 0
KWE3 160858Z 01011KT 07/07 A2991 RMK A01 T00710069  RH  098%=      5-min Rain = 0
KWE3 160859Z 01010KT 07/07 A2991 RMK A01 T00720069  RH  098%=      5-min Rain = 0.01
KWE3 160900Z 01012KT 07/07 A2991 RMK A01 T00720069  RH  098%=      5-min Rain = 0
KWE3 160901Z 02012KT 07/07 A2991 RMK A01 T00710068  RH  098%=      5-min Rain = 0
KWE3 160902Z 02010KT 07/07 A2991 RMK A01 T00710068  RH  098%=      5-min Rain = 0
KWE3 160903Z 02009KT 07/07 A299 RMK A01 T00710068  RH  098%=      5-min Rain = 0
KWE3 160904Z 03010KT 07/07 A299 RMK A01 T00710068  RH  098%=      5-min Rain = 0
KWE3 160905Z 03010KT 07/07 A299 RMK A01 T00710068  RH  098%=      5-min Rain = 0
KWE3 160906Z 03010KT 07/07 A299 RMK A01 T00710068  RH  098%=      5-min Rain = 0
KWE3 160907Z 02010KT 07/07 A299 RMK A01 T00710068  RH  098%=      5-min Rain = 0
KWE3 160908Z 01010KT 07/07 A299 RMK A01 T00710068  RH  098%=      5-min Rain = 0
KWE3 160909Z 01011KT 07/07 A299 RMK A01 T00710068  RH  098%=      5-min Rain = 0
KWE3 160910Z 01010KT 07/07 A2991 RMK A01 T00710068  RH  098%=      5-min Rain = 0
KWE3 160911Z 01010KT 07/07 A2991 RMK A01 T00710068  RH  098%=      5-min Rain = 0
KWE3 160912Z 01010KT 07/07 A2991 RMK A01 T00710069  RH  098%=      5-min Rain = 0
KWE3 160913Z 01010KT 07/07 A2991 RMK A01 T00710069  RH  098%=      5-min Rain = 0
KWE3 160914Z 01010KT 07/07 A2991 RMK A01 T00710069  RH  098%=      5-min Rain = 0
KWE3 160915Z 01010KT 07/07 A2991 RMK A01 T00710069  RH  098%=      5-min Rain = 0
KWE3 160916Z 01011KT 07/07 A2991 RMK A01 T00710069  RH  098%=      5-min Rain = 0
KWE3 160917Z 01010KT 07/07 A2991 RMK A01 T00710069  RH  098%=      5-min Rain = 0
KWE3 160918Z 01011KT 07/07 A2991 RMK A01 T00710069  RH  098%=      5-min Rain = 0
KWE3 160919Z 01011KT 07/07 A2991 RMK A01 T00710069  RH  098%=      5-min Rain = 0
KWE3 160920Z 01012KT 07/07 A299 RMK A01 T00710069  RH  098%=      5-min Rain = 0
KWE3 160921Z 01012KT 07/07 A299 RMK A01 T00710069  RH  098%=      5-min Rain = 0
KWE3 160922Z 01012KT 07/07 A299 RMK A01 T00710069  RH  098%=      5-min Rain = 0
KWE3 160923Z 01013KT 07/07 A299 RMK A01 T00710069  RH  098%=      5-min Rain = 0
KWE3 160924Z 01012KT 07/07 A299 RMK A01 T00710068  RH  098%=      5-min Rain = 0
KWE3 160925Z 01011KT 07/07 A299 RMK A01 T00710068  RH  098%=      5-min Rain = 0
KWE3 160926Z 01011KT 07/07 A299 RMK A01 T00710068  RH  098%=      5-min Rain = 0
KWE3 160927Z 01011KT 07/07 A299 RMK A01 T00710068  RH  098%=      5-min Rain = 0
KWE3 160928Z 01010KT 07/07 A299 RMK A01 T00710068  RH  098%=      5-min Rain = 0
KWE3 160929Z 01012KT 07/07 A299 RMK A01 T00710068  RH  098%=      5-min Rain = 0
KWE3 160930Z 01012KT 07/07 A299 RMK A01 T00710068  RH  098%=      5-min Rain = 0
KWE3 160931Z 01010KT 07/07 A299 RMK A01 T00710068  RH  098%=      5-min Rain = 0
KWE3 160932Z 01011KT 07/07 A299 RMK A01 T00710068  RH  098%=      5-min Rain = 0
KWE3 160933Z 00012KT 07/07 A299 RMK A01 T00710068  RH  098%=      5-min Rain = 0
KWE3 160934Z 01010KT 07/07 A299 RMK A01 T00710068  RH  098%=      5-min Rain = 0
KWE3 160935Z 00010KT 07/07 A299 RMK A01 T00710068  RH  098%=      5-min Rain = 0
KWE3 160936Z 00012KT 07/07 A299 RMK A01 T00710068  RH  098%=      5-min Rain = 0
KWE3 160937Z 01012KT 07/07 A299 RMK A01 T00710068  RH  098%=      5-min Rain = 0
KWE3 160938Z 00012KT 07/07 A299 RMK A01 T00710068  RH  098%=      5-min Rain = 0
KWE3 160939Z 01012KT 07/07 A299 RMK A01 T00710068  RH  098%=      5-min Rain = 0
KWE3 160940Z 00013KT 07/07 A299 RMK A01 T00710068  RH  098%=      5-min Rain = 0
KWE3 160941Z 00013KT 07/07 A299 RMK A01 T00710067  RH  097%=      5-min Rain = 0
KWE3 160942Z 00013KT 07/07 A299 RMK A01 T00710067  RH  097%=      5-min Rain = 0
KWE3 160943Z 00012KT 07/07 A299 RMK A01 T00710067  RH  097%=      5-min Rain = 0
KWE3 160944Z 00014KT 07/07 A299 RMK A01 T00710067  RH  097%=      5-min Rain = 0
KWE3 160945Z 00013KT 07/07 A299 RMK A01 T00710067  RH  097%=      5-min Rain = 0
KWE3 160946Z 00012KT 07/07 A2991 RMK A01 T00710067  RH  097%=      5-min Rain = 0
KWE3 160947Z 00012KT 07/07 A2991 RMK A01 T00720067  RH  097%=      5-min Rain = 0
KWE3 160948Z 00011KT 07/07 A2991 RMK A01 T00720068  RH  097%=      5-min Rain = 0
KWE3 160949Z 00012KT 07/07 A2991 RMK A01 T00720068  RH  097%=      5-min Rain = 0
KWE3 160950Z 00011KT 07/07 A2991 RMK A01 T00720068  RH  097%=      5-min Rain = 0
KWE3 160951Z 00014KT 07/07 A2991 RMK A01 T00720068  RH  097%=      5-min Rain = 0
KWE3 160952Z 36015KT 07/07 A2991 RMK A01 T00720067  RH  097%=      5-min Rain = 0
KWE3 160953Z 00014KT 07/07 A2991 RMK A01 T00720067  RH  097%=      5-min Rain = 0
KWE3 160954Z 00014KT 07/07 A2991 RMK A01 T00720067  RH  097%=      5-min Rain = 0
KWE3 160955Z 00014KT 07/07 A2991 RMK A01 T00720067  RH  097%=      5-min Rain = 0
KWE3 160956Z 00014KT 07/07 A2991 RMK A01 T00720067  RH  097%=      5-min Rain = 0
KWE3 160957Z 00014KT 07/07 A2991 RMK A01 T00720067  RH  097%=      5-min Rain = 0
KWE3 160958Z 00013KT 07/07 A2991 RMK A01 T00720067  RH  097%=      5-min Rain = 0
KWE3 160959Z 00013KT 07/07 A2991 RMK A01 T00720067  RH  097%=      5-min Rain = 0
KWE3 161000Z 00014KT 07/07 A2991 RMK A01 T00720067  RH  097%=      5-min Rain = 0
KWE3 161001Z 00013KT 07/07 A2991 RMK A01 T00720067  RH  097%=      5-min Rain = 0
KWE3 161002Z 00013KT 07/07 A2991 RMK A01 T00720067  RH  097%=      5-min Rain = 0
KWE3 161003Z 36011KT 07/07 A2991 RMK A01 T00720067  RH  097%=      5-min Rain = 0
KWE3 161004Z 00012KT 07/07 A299 RMK A01 T00720067  RH  097%=      5-min Rain = 0
KWE3 161005Z 00013KT 07/07 A299 RMK A01 T00720067  RH  097%=      5-min Rain = 0
KWE3 161006Z 01013KT 07/07 A2991 RMK A01 T00720066  RH  096%=      5-min Rain = 0
KWE3 161007Z 01011KT 07/07 A299 RMK A01 T00720067  RH  097%=      5-min Rain = 0
KWE3 161008Z 01011KT 07/07 A299 RMK A01 T00720067  RH  097%=      5-min Rain = 0
KWE3 161009Z 01011KT 07/07 A299 RMK A01 T00720067  RH  097%=      5-min Rain = 0
KWE3 161010Z 01014KT 07/07 A299 RMK A01 T00720067  RH  097%=      5-min Rain = 0
KWE3 161011Z 01013KT 07/07 A2991 RMK A01 T00720067  RH  097%=      5-min Rain = 0
KWE3 161012Z 36012KT 07/07 A2991 RMK A01 T00720067  RH  097%=      5-min Rain = 0
KWE3 161013Z 00012KT 07/07 A2991 RMK A01 T00720067  RH  097%=      5-min Rain = 0
KWE3 161014Z 00014KT 07/07 A2991 RMK A01 T00720067  RH  096%=      5-min Rain = 0
KWE3 161015Z 00014KT 07/07 A299 RMK A01 T00720066  RH  096%=      5-min Rain = 0
KWE3 161016Z 00013KT 07/07 A2991 RMK A01 T00720066  RH  096%=      5-min Rain = 0
KWE3 161017Z 01014KT 07/07 A2991 RMK A01 T00720066  RH  096%=      5-min Rain = 0
KWE3 161018Z 01013KT 07/07 A2991 RMK A01 T00720066  RH  096%=      5-min Rain = 0
KWE3 161019Z 01012KT 07/07 A299 RMK A01 T00720066  RH  096%=      5-min Rain = 0
KWE3 161020Z 00012KT 07/07 A299 RMK A01 T00720066  RH  096%=      5-min Rain = 0
KWE3 161021Z 01011KT 07/07 A299 RMK A01 T00720066  RH  096%=      5-min Rain = 0
KWE3 161022Z 00015KT 07/07 A299 RMK A01 T00720066  RH  096%=      5-min Rain = 0
KWE3 161023Z 01013KT 07/07 A299 RMK A01 T00720066  RH  096%=      5-min Rain = 0
KWE3 161024Z 01013KT 07/07 A299 RMK A01 T00720066  RH  096%=      5-min Rain = 0
KWE3 161025Z 01012KT 07/07 A299 RMK A01 T00720066  RH  096%=      5-min Rain = 0
KWE3 161026Z 01011KT 07/07 A299 RMK A01 T00720066  RH  096%=      5-min Rain = 0
KWE3 161027Z 01014KT 07/07 A299 RMK A01 T00720066  RH  096%=      5-min Rain = 0
KWE3 161028Z 01013KT 07/07 A299 RMK A01 T00720066  RH  096%=      5-min Rain = 0
KWE3 161029Z 01012KT 07/07 A299 RMK A01 T00720066  RH  096%=      5-min Rain = 0
KWE3 161030Z 01011KT 07/07 A299 RMK A01 T00720066  RH  096%=      5-min Rain = 0
KWE3 161031Z 01011KT 07/07 A299 RMK A01 T00720066  RH  096%=      5-min Rain = 0
KWE3 161032Z 01009KT 07/07 A299 RMK A01 T00720066  RH  096%=      5-min Rain = 0
KWE3 161033Z 01011KT 07/07 A299 RMK A01 T00720066  RH  096%=      5-min Rain = 0
KWE3 161034Z 01009KT 07/07 A299 RMK A01 T00720066  RH  096%=      5-min Rain = 0
KWE3 161035Z 00011KT 07/07 A299 RMK A01 T00720066  RH  096%=      5-min Rain = 0
KWE3 161036Z 01012KT 07/07 A299 RMK A01 T00720066  RH  096%=      5-min Rain = 0
KWE3 161037Z 01011KT 07/07 A299 RMK A01 T00720066  RH  096%=      5-min Rain = 0
KWE3 161038Z 02009KT 07/07 A299 RMK A01 T00720066  RH  096%=      5-min Rain = 0
KWE3 161039Z 02010KT 07/07 A299 RMK A01 T00720066  RH  096%=      5-min Rain = 0
KWE3 161040Z 02011KT 07/07 A299 RMK A01 T00720066  RH  096%=      5-min Rain = 0
KWE3 161041Z 01010KT 07/07 A299 RMK A01 T00720066  RH  096%=      5-min Rain = 0
KWE3 161042Z 01011KT 07/07 A299 RMK A01 T00720066  RH  096%=      5-min Rain = 0
KWE3 161043Z 02011KT 07/07 A299 RMK A01 T00720066  RH  096%=      5-min Rain = 0
KWE3 161044Z 01010KT 07/07 A299 RMK A01 T00720065  RH  096%=      5-min Rain = 0
KWE3 161045Z 01010KT 07/07 A2989 RMK A01 T00720065  RH  096%=      5-min Rain = 0
KWE3 161046Z 02010KT 07/07 A2989 RMK A01 T00720065  RH  096%=      5-min Rain = 0
KWE3 161047Z 02009KT 07/07 A2989 RMK A01 T00720065  RH  096%=      5-min Rain = 0
KWE3 161048Z 02009KT 07/07 A2989 RMK A01 T00720065  RH  096%=      5-min Rain = 0
KWE3 161049Z 03010KT 07/07 A2989 RMK A01 T00720065  RH  096%=      5-min Rain = 0
KWE3 161050Z 02009KT 07/07 A2989 RMK A01 T00720065  RH  096%=      5-min Rain = 0
KWE3 161051Z 03010KT 07/07 A2989 RMK A01 T00710065  RH  096%=      5-min Rain = 0
KWE3 161052Z 02010KT 07/07 A2989 RMK A01 T00710065  RH  096%=      5-min Rain = 0
KWE3 161053Z 02009KT 07/07 A2988 RMK A01 T00710065  RH  096%=      5-min Rain = 0
KWE3 161054Z 03010KT 07/07 A2988 RMK A01 T00710065  RH  096%=      5-min Rain = 0
KWE3 161055Z 02010KT 07/07 A2988 RMK A01 T00710065  RH  096%=      5-min Rain = 0
KWE3 161056Z 02009KT 07/07 A2988 RMK A01 T00710065  RH  096%=      5-min Rain = 0
KWE3 161057Z 02009KT 07/07 A2988 RMK A01 T00710065  RH  096%=      5-min Rain = 0
KWE3 161058Z 02010KT 07/07 A2988 RMK A01 T00710065  RH  096%=      5-min Rain = 0
KWE3 161059Z 02009KT 07/07 A2988 RMK A01 T00710065  RH  096%=      5-min Rain = 0
KWE3 161100Z 02010KT 07/07 A2988 RMK A01 T00710065  RH  096%=      5-min Rain = 0
KWE3 161101Z 03010KT 07/07 A2988 RMK A01 T00710065  RH  096%=      5-min Rain = 0
KWE3 161102Z 02009KT 07/07 A2988 RMK A01 T00710065  RH  096%=      5-min Rain = 0
KWE3 161103Z 02009KT 07/06 A2988 RMK A01 T00710064  RH  096%=      5-min Rain = 0
KWE3 161104Z 02009KT 07/07 A2989 RMK A01 T00710065  RH  096%=      5-min Rain = 0
KWE3 161105Z 02010KT 07/07 A2989 RMK A01 T00710065  RH  096%=      5-min Rain = 0
KWE3 161106Z 02009KT 07/07 A2989 RMK A01 T00710065  RH  096%=      5-min Rain = 0
KWE3 161107Z 02009KT 07/07 A2989 RMK A01 T00710065  RH  096%=      5-min Rain = 0
KWE3 161108Z 02008KT 07/07 A2989 RMK A01 T00710065  RH  096%=      5-min Rain = 0
KWE3 161109Z 02009KT 07/07 A2989 RMK A01 T00710065  RH  096%=      5-min Rain = 0
KWE3 161110Z 02009KT 07/07 A2989 RMK A01 T00710065  RH  096%=      5-min Rain = 0
KWE3 161111Z 02009KT 07/07 A2988 RMK A01 T00710065  RH  096%=      5-min Rain = 0
KWE3 161112Z 02010KT 07/07 A2988 RMK A01 T00710065  RH  096%=      5-min Rain = 0
KWE3 161113Z 02009KT 07/07 A2988 RMK A01 T00710065  RH  096%=      5-min Rain = 0
KWE3 161114Z 03010KT 07/07 A2988 RMK A01 T00710065  RH  096%=      5-min Rain = 0
KWE3 161115Z 02008KT 07/07 A2988 RMK A01 T00710065  RH  096%=      5-min Rain = 0
KWE3 161116Z 02009KT 07/07 A2989 RMK A01 T00710065  RH  096%=      5-min Rain = 0
KWE3 161117Z 02009KT 07/07 A2989 RMK A01 T00710065  RH  096%=      5-min Rain = 0
KWE3 161118Z 02008KT 07/07 A2989 RMK A01 T00710065  RH  096%=      5-min Rain = 0
KWE3 161119Z 02009KT 07/07 A2988 RMK A01 T00710065  RH  096%=      5-min Rain = 0
KWE3 161120Z 02009KT 07/07 A2988 RMK A01 T00710065  RH  096%=      5-min Rain = 0
KWE3 161121Z 02008KT 07/07 A2988 RMK A01 T00710065  RH  096%=      5-min Rain = 0
KWE3 161122Z 02009KT 07/07 A2988 RMK A01 T00710065  RH  096%=      5-min Rain = 0
KWE3 161123Z 02009KT 07/07 A2988 RMK A01 T00710065  RH  096%=      5-min Rain = 0
KWE3 161124Z 02009KT 07/07 A2988 RMK A01 T00710065  RH  096%=      5-min Rain = 0
KWE3 161125Z 02009KT 07/07 A2988 RMK A01 T00710065  RH  096%=      5-min Rain = 0
KWE3 161126Z 03009KT 07/07 A2988 RMK A01 T00710065  RH  096%=      5-min Rain = 0
KWE3 161127Z 03009KT 07/07 A2988 RMK A01 T00710065  RH  096%=      5-min Rain = 0
KWE3 161128Z 03008KT 07/07 A2988 RMK A01 T00710065  RH  096%=      5-min Rain = 0
KWE3 161129Z 03009KT 07/07 A2988 RMK A01 T00710065  RH  096%=      5-min Rain = 0
KWE3 161130Z 04009KT 07/07 A2988 RMK A01 T00710065  RH  096%=      5-min Rain = 0
KWE3 161131Z 04008KT 07/06 A2988 RMK A01 T00700064  RH  096%=      5-min Rain = 0
KWE3 161132Z 04009KT 07/06 A2988 RMK A01 T00700064  RH  096%=      5-min Rain = 0
KWE3 161133Z 04007KT 07/06 A2988 RMK A01 T00700064  RH  096%=      5-min Rain = 0
KWE3 161134Z 04008KT 07/07 A2988 RMK A01 T00700065  RH  096%=      5-min Rain = 0
KWE3 161135Z 04008KT 07/07 A2988 RMK A01 T00700065  RH  096%=      5-min Rain = 0
KWE3 161136Z 05007KT 07/07 A2988 RMK A01 T00700065  RH  096%=      5-min Rain = 0
KWE3 161137Z 04008KT 07/06 A2988 RMK A01 T00700064  RH  096%=      5-min Rain = 0
KWE3 161138Z 04008KT 07/06 A2988 RMK A01 T00700064  RH  096%=      5-min Rain = 0
KWE3 161139Z 04007KT 07/06 A2988 RMK A01 T00700064  RH  096%=      5-min Rain = 0
KWE3 161140Z 03007KT 07/06 A2988 RMK A01 T00700064  RH  096%=      5-min Rain = 0
KWE3 161141Z 03008KT 07/06 A2988 RMK A01 T00700064  RH  096%=      5-min Rain = 0
KWE3 161142Z 03009KT 07/06 A2988 RMK A01 T00690064  RH  096%=      5-min Rain = 0
KWE3 161143Z 02008KT 07/06 A2988 RMK A01 T00690064  RH  096%=      5-min Rain = 0
KWE3 161144Z 02008KT 07/06 A2988 RMK A01 T00690064  RH  097%=      5-min Rain = 0
KWE3 161145Z 02009KT 07/06 A2989 RMK A01 T00690064  RH  097%=      5-min Rain = 0
KWE3 161146Z 01010KT 07/06 A2989 RMK A01 T00690064  RH  097%=      5-min Rain = 0
KWE3 161147Z 01010KT 07/06 A2989 RMK A01 T00690064  RH  097%=      5-min Rain = 0
KWE3 161148Z 01010KT 07/06 A2989 RMK A01 T00690064  RH  097%=      5-min Rain = 0
KWE3 161149Z 01010KT 07/06 A2989 RMK A01 T00690064  RH  097%=      5-min Rain = 0
KWE3 161150Z 00009KT 07/07 A2989 RMK A01 T00690065  RH  097%=      5-min Rain = 0
KWE3 161151Z 01010KT 07/07 A2989 RMK A01 T00690065  RH  097%=      5-min Rain = 0
KWE3 161152Z 01009KT 07/07 A2989 RMK A01 T00700065  RH  097%=      5-min Rain = 0
KWE3 161153Z 01010KT 07/07 A2989 RMK A01 T00700065  RH  097%=      5-min Rain = 0
KWE3 161154Z 01010KT 07/07 A2989 RMK A01 T00700065  RH  097%=      5-min Rain = 0
KWE3 161155Z 01009KT 07/07 A2989 RMK A01 T00700065  RH  097%=      5-min Rain = 0
KWE3 161156Z 02009KT 07/07 A2989 RMK A01 T00700065  RH  097%=      5-min Rain = 0
KWE3 161157Z 02010KT 07/07 A2989 RMK A01 T00700065  RH  097%=      5-min Rain = 0
KWE3 161158Z 02009KT 07/07 A2989 RMK A01 T00700065  RH  097%=      5-min Rain = 0
KWE3 161159Z 02009KT 07/07 A2988 RMK A01 T00700065  RH  097%=      5-min Rain = 0
KWE3 161200Z 02008KT 07/07 A2988 RMK A01 T00700065  RH  097%=      5-min Rain = 0
KWE3 161201Z 02008KT 07/07 A2988 RMK A01 T00700065  RH  097%=      5-min Rain = 0
KWE3 161202Z 02008KT 07/07 A2988 RMK A01 T00700065  RH  097%=      5-min Rain = 0
KWE3 161203Z 02009KT 07/07 A2989 RMK A01 T00700065  RH  097%=      5-min Rain = 0
KWE3 161204Z 03009KT 07/06 A2989 RMK A01 T00690064  RH  097%=      5-min Rain = 0
KWE3 161205Z 02007KT 07/06 A2989 RMK A01 T00690064  RH  097%=      5-min Rain = 0
KWE3 161206Z 02008KT 07/06 A2989 RMK A01 T00690064  RH  097%=      5-min Rain = 0
KWE3 161207Z 03007KT 07/06 A2989 RMK A01 T00690064  RH  097%=      5-min Rain = 0
KWE3 161208Z 03008KT 07/06 A2989 RMK A01 T00690064  RH  096%=      5-min Rain = 0
KWE3 161209Z 02008KT 07/06 A2989 RMK A01 T00690064  RH  096%=      5-min Rain = 0
KWE3 161210Z 03009KT 07/06 A2989 RMK A01 T00690064  RH  096%=      5-min Rain = 0
KWE3 161211Z 02008KT 07/06 A2989 RMK A01 T00690064  RH  096%=      5-min Rain = 0
KWE3 161212Z 02008KT 07/06 A2989 RMK A01 T00690064  RH  096%=      5-min Rain = 0
KWE3 161213Z 03007KT 07/06 A2988 RMK A01 T00690064  RH  096%=      5-min Rain = 0
KWE3 161214Z 03008KT 07/06 A2988 RMK A01 T00690064  RH  096%=      5-min Rain = 0
KWE3 161215Z 03008KT 07/06 A2988 RMK A01 T00690064  RH  096%=      5-min Rain = 0
KWE3 161216Z 03009KT 07/06 A2988 RMK A01 T00690064  RH  096%=      5-min Rain = 0
KWE3 161217Z 02008KT 07/06 A2988 RMK A01 T00690064  RH  096%=      5-min Rain = 0
KWE3 161218Z 02009KT 07/06 A2988 RMK A01 T00690064  RH  096%=      5-min Rain = 0
KWE3 161219Z 02009KT 07/06 A2988 RMK A01 T00690064  RH  096%=      5-min Rain = 0
KWE3 161220Z 02008KT 07/06 A2988 RMK A01 T00690064  RH  097%=      5-min Rain = 0
KWE3 161221Z 02008KT 07/06 A2988 RMK A01 T00690064  RH  097%=      5-min Rain = 0
KWE3 161222Z 02009KT 07/06 A2988 RMK A01 T00690064  RH  097%=      5-min Rain = 0
KWE3 161223Z 02008KT 07/07 A2988 RMK A01 T00690065  RH  097%=      5-min Rain = 0
KWE3 161224Z 02009KT 07/07 A2988 RMK A01 T00690065  RH  097%=      5-min Rain = 0
KWE3 161225Z 02009KT 07/06 A2988 RMK A01 T00690064  RH  097%=      5-min Rain = 0
KWE3 161226Z 02008KT 07/06 A2988 RMK A01 T00690064  RH  097%=      5-min Rain = 0
KWE3 161227Z 02008KT 07/07 A2989 RMK A01 T00690065  RH  097%=      5-min Rain = 0
KWE3 161228Z 02008KT 07/07 A2988 RMK A01 T00690065  RH  097%=      5-min Rain = 0
KWE3 161229Z 02009KT 07/07 A2988 RMK A01 T00690065  RH  097%=      5-min Rain = 0
KWE3 161230Z 02009KT 07/06 A2988 RMK A01 T00690064  RH  097%=      5-min Rain = 0
KWE3 161231Z 02008KT 07/06 A2988 RMK A01 T00690064  RH  097%=      5-min Rain = 0
KWE3 161232Z 02010KT 07/07 A2989 RMK A01 T00700065  RH  097%=      5-min Rain = 0
KWE3 161233Z 02010KT 07/07 A2989 RMK A01 T00700065  RH  096%=      5-min Rain = 0
KWE3 161234Z 02009KT 07/07 A2989 RMK A01 T00700065  RH  096%=      5-min Rain = 0
KWE3 161235Z 02008KT 07/07 A2989 RMK A01 T00700065  RH  096%=      5-min Rain = 0
KWE3 161236Z 02009KT 07/07 A2989 RMK A01 T00700065  RH  096%=      5-min Rain = 0
KWE3 161237Z 01010KT 07/07 A2989 RMK A01 T00700065  RH  096%=      5-min Rain = 0
KWE3 161238Z 02010KT 07/07 A2989 RMK A01 T00700065  RH  096%=      5-min Rain = 0
KWE3 161239Z 02009KT 07/07 A2989 RMK A01 T00700065  RH  096%=      5-min Rain = 0
KWE3 161240Z 01009KT 07/07 A2989 RMK A01 T00700065  RH  096%=      5-min Rain = 0
KWE3 161241Z 01009KT 07/06 A2989 RMK A01 T00700064  RH  096%=      5-min Rain = 0
KWE3 161242Z 01009KT 07/07 A299 RMK A01 T00700065  RH  096%=      5-min Rain = 0
KWE3 161243Z 01009KT 07/07 A299 RMK A01 T00700065  RH  096%=      5-min Rain = 0
KWE3 161244Z 01010KT 07/07 A299 RMK A01 T00700065  RH  096%=      5-min Rain = 0
KWE3 161245Z 02009KT 07/06 A299 RMK A01 T00700064  RH  096%=      5-min Rain = 0
KWE3 161246Z 01009KT 07/06 A299 RMK A01 T00700064  RH  096%=      5-min Rain = 0
KWE3 161247Z 01008KT 07/06 A299 RMK A01 T00700064  RH  096%=      5-min Rain = 0
KWE3 161248Z 01008KT 07/07 A299 RMK A01 T00710065  RH  096%=      5-min Rain = 0
KWE3 161249Z 01008KT 07/07 A299 RMK A01 T00710065  RH  096%=      5-min Rain = 0
KWE3 161250Z 01008KT 07/07 A299 RMK A01 T00710065  RH  096%=      5-min Rain = 0
KWE3 161251Z 01008KT 07/07 A299 RMK A01 T00710065  RH  096%=      5-min Rain = 0
KWE3 161252Z 01010KT 07/07 A299 RMK A01 T00710065  RH  096%=      5-min Rain = 0
KWE3 161253Z 01009KT 07/07 A299 RMK A01 T00710065  RH  096%=      5-min Rain = 0
KWE3 161254Z 01010KT 07/07 A299 RMK A01 T00710065  RH  096%=      5-min Rain = 0
KWE3 161255Z 01007KT 07/07 A299 RMK A01 T00710065  RH  096%=      5-min Rain = 0
KWE3 161256Z 01007KT 07/07 A299 RMK A01 T00720066  RH  096%=      5-min Rain = 0
KWE3 161257Z 01007KT 07/07 A299 RMK A01 T00720066  RH  096%=      5-min Rain = 0
KWE3 161258Z 01008KT 07/07 A299 RMK A01 T00720066  RH  096%=      5-min Rain = 0
KWE3 161259Z 01009KT 07/07 A299 RMK A01 T00720067  RH  096%=      5-min Rain = 0
KWE3 161300Z 01009KT 07/07 A299 RMK A01 T00720066  RH  096%=      5-min Rain = 0
KWE3 161301Z 01010KT 07/07 A299 RMK A01 T00720066  RH  096%=      5-min Rain = 0
KWE3 161302Z 01009KT 07/07 A2991 RMK A01 T00720066  RH  096%=      5-min Rain = 0
KWE3 161303Z 01009KT 07/07 A2991 RMK A01 T00720066  RH  096%=      5-min Rain = 0
KWE3 161304Z 01007KT 07/07 A2991 RMK A01 T00720066  RH  096%=      5-min Rain = 0
KWE3 161305Z 01008KT 07/07 A2991 RMK A01 T00730067  RH  096%=      5-min Rain = 0
KWE3 161306Z 01009KT 07/07 A2991 RMK A01 T00730067  RH  096%=      5-min Rain = 0
KWE3 161307Z 01009KT 07/07 A2991 RMK A01 T00730067  RH  096%=      5-min Rain = 0
KWE3 161308Z 01010KT 07/07 A2991 RMK A01 T00730067  RH  096%=      5-min Rain = 0
KWE3 161309Z 01009KT 07/07 A2991 RMK A01 T00730067  RH  096%=      5-min Rain = 0
KWE3 161310Z 01010KT 07/07 A2991 RMK A01 T00730067  RH  096%=      5-min Rain = 0
KWE3 161311Z 01010KT 07/07 A2991 RMK A01 T00730067  RH  096%=      5-min Rain = 0
KWE3 161312Z 01009KT 07/07 A2991 RMK A01 T00730067  RH  096%=      5-min Rain = 0
KWE3 161313Z 00009KT 07/07 A2991 RMK A01 T00730067  RH  096%=      5-min Rain = 0
KWE3 161314Z 01009KT 07/07 A2991 RMK A01 T00740067  RH  096%=      5-min Rain = 0
KWE3 161315Z 01010KT 07/07 A2991 RMK A01 T00740067  RH  096%=      5-min Rain = 0
KWE3 161316Z 01011KT 07/07 A2991 RMK A01 T00740067  RH  096%=      5-min Rain = 0
KWE3 161317Z 01010KT 07/07 A2991 RMK A01 T00740067  RH  096%=      5-min Rain = 0
KWE3 161318Z 01009KT 07/07 A2991 RMK A01 T00740067  RH  096%=      5-min Rain = 0
KWE3 161319Z 01010KT 07/07 A2991 RMK A01 T00740067  RH  096%=      5-min Rain = 0
KWE3 161320Z 01010KT 07/07 A2991 RMK A01 T00740068  RH  096%=      5-min Rain = 0
KWE3 161321Z 01011KT 07/07 A2991 RMK A01 T00740067  RH  096%=      5-min Rain = 0
KWE3 161322Z 01011KT 07/07 A2991 RMK A01 T00740067  RH  095%=      5-min Rain = 0
KWE3 161323Z 01012KT 07/07 A2991 RMK A01 T00740067  RH  095%=      5-min Rain = 0
KWE3 161324Z 01012KT 07/07 A2991 RMK A01 T00740067  RH  095%=      5-min Rain = 0
KWE3 161325Z 01010KT 07/07 A2991 RMK A01 T00740066  RH  095%=      5-min Rain = 0
KWE3 161326Z 01010KT 07/07 A2991 RMK A01 T00740067  RH  095%=      5-min Rain = 0
KWE3 161327Z 01012KT 07/07 A2991 RMK A01 T00740067  RH  095%=      5-min Rain = 0
KWE3 161328Z 01010KT 07/07 A2992 RMK A01 T00740067  RH  095%=      5-min Rain = 0
KWE3 161329Z 01013KT 07/07 A2992 RMK A01 T00740067  RH  095%=      5-min Rain = 0
KWE3 161330Z 01012KT 07/07 A2992 RMK A01 T00740067  RH  095%=      5-min Rain = 0
KWE3 161331Z 01010KT 07/07 A2992 RMK A01 T00740067  RH  095%=      5-min Rain = 0
KWE3 161332Z 02011KT 07/07 A2992 RMK A01 T00740067  RH  095%=      5-min Rain = 0
KWE3 161333Z 02011KT 07/07 A2992 RMK A01 T00740067  RH  095%=      5-min Rain = 0
KWE3 161334Z 01011KT 07/07 A2992 RMK A01 T00740067  RH  095%=      5-min Rain = 0
KWE3 161335Z 01012KT 08/07 A2992 RMK A01 T00750067  RH  095%=      5-min Rain = 0
KWE3 161336Z 01012KT 08/07 A2992 RMK A01 T00750067  RH  095%=      5-min Rain = 0
KWE3 161337Z 01012KT 08/07 A2992 RMK A01 T00750067  RH  094%=      5-min Rain = 0
KWE3 161338Z 01011KT 08/07 A2992 RMK A01 T00750067  RH  095%=      5-min Rain = 0
KWE3 161339Z 01010KT 08/07 A2992 RMK A01 T00750068  RH  095%=      5-min Rain = 0
KWE3 161340Z 01012KT 08/07 A2992 RMK A01 T00750068  RH  095%=      5-min Rain = 0
KWE3 161341Z 01012KT 08/07 A2992 RMK A01 T00750068  RH  095%=      5-min Rain = 0
KWE3 161342Z 01012KT 08/07 A2992 RMK A01 T00750067  RH  095%=      5-min Rain = 0
KWE3 161343Z 01013KT 08/07 A2992 RMK A01 T00750067  RH  094%=      5-min Rain = 0
KWE3 161344Z 01012KT 08/07 A2992 RMK A01 T00750066  RH  094%=      5-min Rain = 0
KWE3 161345Z 01012KT 08/07 A2992 RMK A01 T00750067  RH  094%=      5-min Rain = 0
KWE3 161346Z 01013KT 08/07 A2992 RMK A01 T00750067  RH  094%=      5-min Rain = 0
KWE3 161347Z 01013KT 08/07 A2992 RMK A01 T00750066  RH  094%=      5-min Rain = 0
KWE3 161348Z 01010KT 08/07 A2992 RMK A01 T00750067  RH  094%=      5-min Rain = 0
KWE3 161349Z 01010KT 08/07 A2992 RMK A01 T00760069  RH  095%=      5-min Rain = 0
KWE3 161350Z 01011KT 08/07 A2992 RMK A01 T00760068  RH  095%=      5-min Rain = 0
KWE3 161351Z 01010KT 08/07 A2992 RMK A01 T00760068  RH  095%=      5-min Rain = 0
KWE3 161352Z 01012KT 08/07 A2992 RMK A01 T00770069  RH  095%=      5-min Rain = 0
KWE3 161353Z 01012KT 08/07 A2992 RMK A01 T00770068  RH  094%=      5-min Rain = 0
KWE3 161354Z 01011KT 08/07 A2992 RMK A01 T00760067  RH  094%=      5-min Rain = 0
KWE3 161355Z 02011KT 08/07 A2992 RMK A01 T00760067  RH  094%=      5-min Rain = 0
KWE3 161356Z 02010KT 08/07 A2992 RMK A01 T00760067  RH  094%=      5-min Rain = 0
KWE3 161357Z 01011KT 08/07 A2992 RMK A01 T00760067  RH  094%=      5-min Rain = 0
KWE3 161358Z 01009KT 08/07 A2992 RMK A01 T00760067  RH  094%=      5-min Rain = 0
KWE3 161359Z 01010KT 08/07 A2992 RMK A01 T00770069  RH  094%=      5-min Rain = 0
KWE3 161400Z 01010KT 08/07 A2992 RMK A01 T00770068  RH  094%=      5-min Rain = 0
KWE3 161401Z 02010KT 08/07 A2992 RMK A01 T00770068  RH  094%=      5-min Rain = 0
KWE3 161402Z 02011KT 08/07 A2992 RMK A01 T00770067  RH  094%=      5-min Rain = 0
KWE3 161403Z 02009KT 08/07 A2992 RMK A01 T00770067  RH  094%=      5-min Rain = 0
KWE3 161404Z 02009KT 08/07 A2992 RMK A01 T00770068  RH  094%=      5-min Rain = 0
KWE3 161405Z 01009KT 08/07 A2992 RMK A01 T00770069  RH  094%=      5-min Rain = 0
KWE3 161406Z 00010KT 08/07 A2992 RMK A01 T00780070  RH  095%=      5-min Rain = 0
KWE3 161407Z 01011KT 08/07 A2992 RMK A01 T00780069  RH  094%=      5-min Rain = 0
KWE3 161408Z 01011KT 08/07 A2992 RMK A01 T00780069  RH  094%=      5-min Rain = 0
KWE3 161409Z 01010KT 08/07 A2993 RMK A01 T00780068  RH  094%=      5-min Rain = 0
KWE3 161410Z 01011KT 08/07 A2993 RMK A01 T00780069  RH  094%=      5-min Rain = 0
KWE3 161411Z 00011KT 08/07 A2993 RMK A01 T00790069  RH  094%=      5-min Rain = 0
KWE3 161412Z 00012KT 08/07 A2993 RMK A01 T00790069  RH  093%=      5-min Rain = 0
KWE3 161413Z 00012KT 08/07 A2993 RMK A01 T00790068  RH  093%=      5-min Rain = 0
KWE3 161414Z 01013KT 08/07 A2993 RMK A01 T00780068  RH  093%=      5-min Rain = 0
KWE3 161415Z 01012KT 08/07 A2993 RMK A01 T00780068  RH  093%=      5-min Rain = 0
KWE3 161416Z 01012KT 08/07 A2993 RMK A01 T00780068  RH  093%=      5-min Rain = 0
KWE3 161417Z 01013KT 08/07 A2993 RMK A01 T00780068  RH  094%=      5-min Rain = 0
KWE3 161418Z 00012KT 08/07 A2993 RMK A01 T00780068  RH  093%=      5-min Rain = 0
KWE3 161419Z 00012KT 08/07 A2993 RMK A01 T00780068  RH  093%=      5-min Rain = 0
KWE3 161420Z 01010KT 08/07 A2993 RMK A01 T00780069  RH  094%=      5-min Rain = 0
KWE3 161421Z 00012KT 08/07 A2993 RMK A01 T00780069  RH  094%=      5-min Rain = 0
KWE3 161422Z 01011KT 08/07 A2993 RMK A01 T00790069  RH  094%=      5-min Rain = 0
KWE3 161423Z 02012KT 08/07 A2993 RMK A01 T00790070  RH  094%=      5-min Rain = 0
KWE3 161424Z 02013KT 08/07 A2992 RMK A01 T00790069  RH  093%=      5-min Rain = 0
KWE3 161425Z 02012KT 08/07 A2992 RMK A01 T00790067  RH  092%=      5-min Rain = 0
KWE3 161426Z 01012KT 08/07 A2993 RMK A01 T00790067  RH  093%=      5-min Rain = 0
KWE3 161427Z 01012KT 08/07 A2993 RMK A01 T00790068  RH  093%=      5-min Rain = 0
KWE3 161428Z 01010KT 08/07 A2993 RMK A01 T00790069  RH  093%=      5-min Rain = 0
KWE3 161429Z 01011KT 08/07 A2993 RMK A01 T00790069  RH  093%=      5-min Rain = 0
KWE3 161430Z 01012KT 08/07 A2993 RMK A01 T00790068  RH  093%=      5-min Rain = 0
KWE3 161431Z 01010KT 08/07 A2993 RMK A01 T00790069  RH  093%=      5-min Rain = 0
KWE3 161432Z 00011KT 08/07 A2993 RMK A01 T00790070  RH  093%=      5-min Rain = 0
KWE3 161433Z 00011KT 08/07 A2993 RMK A01 T00790069  RH  093%=      5-min Rain = 0
KWE3 161434Z 00011KT 08/07 A2993 RMK A01 T00800069  RH  093%=      5-min Rain = 0
KWE3 161435Z 00011KT 08/07 A2993 RMK A01 T00800070  RH  094%=      5-min Rain = 0
KWE3 161436Z 01010KT 08/07 A2993 RMK A01 T00800070  RH  094%=      5-min Rain = 0
KWE3 161437Z 00011KT 08/07 A2993 RMK A01 T00800069  RH  093%=      5-min Rain = 0
KWE3 161438Z 01011KT 08/07 A2993 RMK A01 T00800069  RH  093%=      5-min Rain = 0
KWE3 161439Z 01011KT 08/07 A2993 RMK A01 T00800069  RH  093%=      5-min Rain = 0
KWE3 161440Z 01012KT 08/07 A2993 RMK A01 T00800069  RH  093%=      5-min Rain = 0
KWE3 161441Z 01010KT 08/07 A2993 RMK A01 T00800069  RH  092%=      5-min Rain = 0
KWE3 161442Z 00011KT 08/07 A2993 RMK A01 T00800069  RH  093%=      5-min Rain = 0
KWE3 161443Z 01011KT 08/07 A2993 RMK A01 T00800069  RH  093%=      5-min Rain = 0
KWE3 161444Z 01010KT 08/07 A2993 RMK A01 T00800069  RH  092%=      5-min Rain = 0
KWE3 161445Z 01011KT 08/07 A2993 RMK A01 T00800069  RH  093%=      5-min Rain = 0
KWE3 161446Z 01010KT 08/07 A2993 RMK A01 T00800069  RH  093%=      5-min Rain = 0
KWE3 161447Z 01011KT 08/07 A2993 RMK A01 T00800070  RH  093%=      5-min Rain = 0
KWE3 161448Z 01011KT 08/07 A2993 RMK A01 T00800069  RH  093%=      5-min Rain = 0
KWE3 161449Z 01010KT 08/07 A2993 RMK A01 T00800069  RH  093%=      5-min Rain = 0
KWE3 161450Z 00009KT 08/07 A2994 RMK A01 T00790070  RH  094%=      5-min Rain = 0
KWE3 161451Z 01008KT 08/07 A2994 RMK A01 T00800071  RH  094%=      5-min Rain = 0
KWE3 161452Z 00012KT 08/07 A2994 RMK A01 T00800071  RH  094%=      5-min Rain = 0
KWE3 161453Z 36013KT 08/07 A2994 RMK A01 T00800069  RH  093%=      5-min Rain = 0
KWE3 161454Z 00011KT 08/07 A2994 RMK A01 T00790070  RH  093%=      5-min Rain = 0
KWE3 161455Z 01012KT 08/07 A2994 RMK A01 T00790070  RH  094%=      5-min Rain = 0
KWE3 161456Z 01013KT 08/07 A2994 RMK A01 T00790069  RH  094%=      5-min Rain = 0
KWE3 161457Z 01011KT 08/07 A2994 RMK A01 T00790068  RH  093%=      5-min Rain = 0
KWE3 161458Z 01011KT 08/07 A2994 RMK A01 T00790068  RH  093%=      5-min Rain = 0
KWE3 161459Z 01011KT 08/07 A2994 RMK A01 T00790070  RH  094%=      5-min Rain = 0
KWE3 161500Z 01011KT 08/07 A2994 RMK A01 T00800070  RH  094%=      5-min Rain = 0
KWE3 161501Z 01012KT 08/07 A2994 RMK A01 T00800071  RH  094%=      5-min Rain = 0
KWE3 161502Z 01011KT 08/07 A2994 RMK A01 T00800070  RH  093%=      5-min Rain = 0
KWE3 161503Z 00010KT 08/07 A2994 RMK A01 T00800070  RH  093%=      5-min Rain = 0
KWE3 161504Z 35010KT 08/07 A2994 RMK A01 T00800071  RH  094%=      5-min Rain = 0
KWE3 161505Z 35010KT 08/07 A2994 RMK A01 T00810072  RH  094%=      5-min Rain = 0
KWE3 161506Z 36011KT 08/07 A2994 RMK A01 T00810071  RH  093%=      5-min Rain = 0
KWE3 161507Z 00011KT 08/07 A2994 RMK A01 T00810070  RH  093%=      5-min Rain = 0
KWE3 161508Z 36012KT 08/07 A2994 RMK A01 T00810071  RH  093%=      5-min Rain = 0
KWE3 161509Z 36012KT 08/07 A2994 RMK A01 T00810071  RH  093%=      5-min Rain = 0
KWE3 161510Z 36011KT 08/07 A2994 RMK A01 T00810071  RH  094%=      5-min Rain = 0
KWE3 161511Z 36012KT 08/07 A2994 RMK A01 T00810072  RH  094%=      5-min Rain = 0
KWE3 161512Z 36011KT 08/07 A2994 RMK A01 T00810072  RH  094%=      5-min Rain = 0
KWE3 161513Z 00011KT 08/07 A2994 RMK A01 T00810071  RH  093%=      5-min Rain = 0
KWE3 161514Z 00012KT 08/07 A2994 RMK A01 T00810071  RH  093%=      5-min Rain = 0
KWE3 161515Z 00012KT 08/07 A2994 RMK A01 T00810070  RH  093%=      5-min Rain = 0
KWE3 161516Z 00009KT 08/07 A2995 RMK A01 T00820070  RH  093%=      5-min Rain = 0
KWE3 161517Z 36010KT 08/07 A2995 RMK A01 T00820072  RH  093%=      5-min Rain = 0
KWE3 161518Z 36011KT 08/07 A2995 RMK A01 T00830073  RH  093%=      5-min Rain = 0
KWE3 161519Z 36012KT 08/07 A2995 RMK A01 T00830073  RH  093%=      5-min Rain = 0
KWE3 161520Z 00013KT 08/07 A2995 RMK A01 T00830072  RH  093%=      5-min Rain = 0
KWE3 161521Z 36011KT 08/07 A2995 RMK A01 T00820071  RH  093%=      5-min Rain = 0
KWE3 161522Z 01012KT 08/07 A2995 RMK A01 T00820071  RH  093%=      5-min Rain = 0
KWE3 161523Z 01011KT 08/07 A2995 RMK A01 T00820071  RH  093%=      5-min Rain = 0
KWE3 161524Z 01011KT 08/07 A2995 RMK A01 T00820072  RH  093%=      5-min Rain = 0
KWE3 161525Z 01011KT 08/07 A2995 RMK A01 T00820072  RH  093%=      5-min Rain = 0
KWE3 161526Z 00011KT 08/07 A2995 RMK A01 T00820072  RH  093%=      5-min Rain = 0
KWE3 161527Z 00011KT 08/07 A2995 RMK A01 T00820071  RH  093%=      5-min Rain = 0
KWE3 161528Z 01010KT 08/07 A2995 RMK A01 T00820071  RH  093%=      5-min Rain = 0
KWE3 161529Z 35010KT 08/07 A2995 RMK A01 T00820072  RH  094%=      5-min Rain = 0
KWE3 161530Z 35011KT 08/07 A2995 RMK A01 T00820073  RH  094%=      5-min Rain = 0
KWE3 161531Z 35010KT 08/07 A2995 RMK A01 T00830073  RH  094%=      5-min Rain = 0
KWE3 161532Z 36013KT 08/07 A2995 RMK A01 T00820073  RH  094%=      5-min Rain = 0
KWE3 161533Z 36013KT 08/07 A2995 RMK A01 T00820072  RH  093%=      5-min Rain = 0
KWE3 161534Z 35013KT 08/07 A2995 RMK A01 T00820071  RH  093%=      5-min Rain = 0
KWE3 161535Z 35012KT 08/07 A2995 RMK A01 T00820070  RH  092%=      5-min Rain = 0
KWE3 161536Z 00010KT 08/07 A2995 RMK A01 T00820071  RH  093%=      5-min Rain = 0
KWE3 161537Z 00012KT 08/07 A2995 RMK A01 T00830072  RH  093%=      5-min Rain = 0
KWE3 161538Z 36011KT 08/07 A2995 RMK A01 T00830071  RH  092%=      5-min Rain = 0
KWE3 161539Z 36011KT 08/07 A2995 RMK A01 T00830071  RH  092%=      5-min Rain = 0
KWE3 161540Z 36009KT 08/07 A2995 RMK A01 T00830071  RH  092%=      5-min Rain = 0
KWE3 161541Z 36009KT 08/07 A2995 RMK A01 T00840073  RH  093%=      5-min Rain = 0
KWE3 161542Z 36011KT 08/07 A2995 RMK A01 T00840072  RH  092%=      5-min Rain = 0
KWE3 161543Z 00013KT 08/07 A2995 RMK A01 T00840072  RH  092%=      5-min Rain = 0
KWE3 161544Z 36012KT 08/07 A2995 RMK A01 T00840071  RH  092%=      5-min Rain = 0
KWE3 161545Z 36013KT 08/07 A2995 RMK A01 T00840071  RH  091%=      5-min Rain = 0
KWE3 161546Z 36013KT 08/07 A2995 RMK A01 T00840071  RH  091%=      5-min Rain = 0
KWE3 161547Z 35009KT 08/07 A2995 RMK A01 T00840072  RH  092%=      5-min Rain = 0
KWE3 161548Z 35009KT 09/08 A2995 RMK A01 T00860076  RH  093%=      5-min Rain = 0
KWE3 161549Z 35012KT 09/08 A2995 RMK A01 T00870075  RH  092%=      5-min Rain = 0
KWE3 161550Z 35012KT 09/07 A2995 RMK A01 T00870072  RH  090%=      5-min Rain = 0
KWE3 161551Z 35012KT 09/07 A2995 RMK A01 T00860071  RH  090%=      5-min Rain = 0
KWE3 161552Z 35011KT 09/07 A2995 RMK A01 T00870073  RH  091%=      5-min Rain = 0
KWE3 161553Z 35012KT 09/07 A2995 RMK A01 T00880073  RH  091%=      5-min Rain = 0
KWE3 161554Z 35012KT 09/07 A2995 RMK A01 T00880073  RH  091%=      5-min Rain = 0
KWE3 161555Z 35012KT 09/07 A2995 RMK A01 T00890074  RH  091%=      5-min Rain = 0
KWE3 161556Z 00012KT 09/07 A2995 RMK A01 T00890074  RH  090%=      5-min Rain = 0
KWE3 161557Z 36011KT 09/07 A2995 RMK A01 T00900073  RH  090%=      5-min Rain = 0
KWE3 161558Z 00012KT 09/08 A2995 RMK A01 T00900075  RH  090%=      5-min Rain = 0
KWE3 161559Z 00012KT 09/08 A2995 RMK A01 T00910075  RH  090%=      5-min Rain = 0
KWE3 161600Z 36012KT 09/07 A2995 RMK A01 T00910074  RH  089%=      5-min Rain = 0
KWE3 161601Z 35011KT 09/08 A2995 RMK A01 T00910075  RH  090%=      5-min Rain = 0
KWE3 161602Z 35012KT 09/07 A2995 RMK A01 T00910074  RH  089%=      5-min Rain = 0
KWE3 161603Z 35014KT 09/07 A2995 RMK A01 T00900072  RH  089%=      5-min Rain = 0
KWE3 161604Z 36013KT 09/07 A2995 RMK A01 T00890071  RH  088%=      5-min Rain = 0
KWE3 161605Z 36013KT 09/07 A2995 RMK A01 T00890071  RH  089%=      5-min Rain = 0
KWE3 161606Z 36014KT 09/07 A2995 RMK A01 T00890071  RH  089%=      5-min Rain = 0
KWE3 161607Z 35013KT 09/07 A2995 RMK A01 T00890072  RH  089%=      5-min Rain = 0
KWE3 161608Z 35013KT 09/07 A2995 RMK A01 T00900072  RH  089%=      5-min Rain = 0
KWE3 161609Z 35013KT 09/07 A2995 RMK A01 T00900072  RH  088%=      5-min Rain = 0
KWE3 161610Z 00012KT 09/07 A2995 RMK A01 T00910072  RH  088%=      5-min Rain = 0
KWE3 161611Z 00012KT 09/07 A2995 RMK A01 T00910074  RH  089%=      5-min Rain = 0
KWE3 161612Z 36011KT 09/07 A2995 RMK A01 T00930074  RH  088%=      5-min Rain = 0
KWE3 161613Z 35012KT 09/08 A2995 RMK A01 T00940075  RH  088%=      5-min Rain = 0
KWE3 161614Z 36010KT 09/07 A2995 RMK A01 T00940073  RH  087%=      5-min Rain = 0
KWE3 161615Z 35010KT 09/07 A2995 RMK A01 T00940074  RH  087%=      5-min Rain = 0
KWE3 161616Z 35009KT 10/08 A2995 RMK A01 T00950077  RH  088%=      5-min Rain = 0
KWE3 161617Z 00010KT 10/08 A2995 RMK A01 T00960075  RH  087%=      5-min Rain = 0
KWE3 161618Z 36010KT 10/07 A2995 RMK A01 T00960074  RH  086%=      5-min Rain = 0
KWE3 161619Z 00010KT 10/07 A2995 RMK A01 T00950074  RH  086%=      5-min Rain = 0
KWE3 161620Z 36010KT 10/08 A2995 RMK A01 T00960075  RH  087%=      5-min Rain = 0
KWE3 161621Z 36013KT 10/07 A2995 RMK A01 T00960073  RH  086%=      5-min Rain = 0
KWE3 161622Z 35013KT 10/07 A2995 RMK A01 T00950073  RH  086%=      5-min Rain = 0
KWE3 161623Z 36013KT 10/07 A2995 RMK A01 T00950072  RH  086%=      5-min Rain = 0
KWE3 161624Z 36014KT 10/07 A2995 RMK A01 T00960074  RH  086%=      5-min Rain = 0
KWE3 161625Z 35013KT 10/07 A2995 RMK A01 T00960074  RH  086%=      5-min Rain = 0
KWE3 161626Z 35013KT 10/07 A2995 RMK A01 T00970074  RH  086%=      5-min Rain = 0
KWE3 161627Z 35013KT 10/07 A2995 RMK A01 T00970073  RH  085%=      5-min Rain = 0
KWE3 161628Z 36012KT 10/07 A2996 RMK A01 T00960072  RH  085%=      5-min Rain = 0
KWE3 161629Z 35012KT 10/07 A2995 RMK A01 T00950074  RH  087%=      5-min Rain = 0
KWE3 161630Z 35013KT 10/07 A2995 RMK A01 T00950074  RH  087%=      5-min Rain = 0
KWE3 161631Z 35012KT 10/08 A2995 RMK A01 T00960075  RH  087%=      5-min Rain = 0
KWE3 161632Z 35014KT 10/07 A2995 RMK A01 T00960072  RH  085%=      5-min Rain = 0
KWE3 161633Z 36012KT 10/07 A2995 RMK A01 T00960072  RH  085%=      5-min Rain = 0
KWE3 161634Z 36011KT 10/08 A2995 RMK A01 T00960076  RH  087%=      5-min Rain = 0
KWE3 161635Z 00013KT 10/08 A2995 RMK A01 T00970077  RH  087%=      5-min Rain = 0
KWE3 161636Z 36011KT 10/08 A2995 RMK A01 T00970076  RH  086%=      5-min Rain = 0
KWE3 161637Z 01011KT 10/08 A2996 RMK A01 T00970077  RH  087%=      5-min Rain = 0
KWE3 161638Z 36011KT 10/08 A2996 RMK A01 T00970078  RH  088%=      5-min Rain = 0
KWE3 161639Z 00011KT 10/08 A2996 RMK A01 T00980078  RH  087%=      5-min Rain = 0
KWE3 161640Z 35012KT 10/08 A2995 RMK A01 T00980077  RH  087%=      5-min Rain = 0
KWE3 161641Z 35011KT 10/08 A2995 RMK A01 T00980075  RH  086%=      5-min Rain = 0
KWE3 161642Z 36012KT 10/08 A2995 RMK A01 T00980077  RH  087%=      5-min Rain = 0
KWE3 161643Z 36011KT 10/07 A2995 RMK A01 T00990074  RH  085%=      5-min Rain = 0
KWE3 161644Z 36012KT 10/08 A2995 RMK A01 T00990075  RH  085%=      5-min Rain = 0
KWE3 161645Z 35014KT 10/07 A2995 RMK A01 T00990074  RH  084%=      5-min Rain = 0
KWE3 161646Z 35012KT 10/07 A2995 RMK A01 T00990073  RH  084%=      5-min Rain = 0
KWE3 161647Z 35011KT 10/07 A2995 RMK A01 T01000074  RH  084%=      5-min Rain = 0
KWE3 161648Z 36012KT 10/08 A2995 RMK A01 T01010077  RH  085%=      5-min Rain = 0
KWE3 161649Z 36013KT 10/08 A2995 RMK A01 T01020078  RH  085%=      5-min Rain = 0
KWE3 161650Z 36013KT 10/07 A2995 RMK A01 T01020074  RH  083%=      5-min Rain = 0
KWE3 161651Z 35013KT 10/07 A2995 RMK A01 T01020073  RH  082%=      5-min Rain = 0
KWE3 161652Z 35013KT 10/07 A2995 RMK A01 T01010073  RH  082%=      5-min Rain = 0
KWE3 161653Z 36011KT 10/08 A2995 RMK A01 T01020077  RH  085%=      5-min Rain = 0
KWE3 161654Z 00009KT 10/08 A2995 RMK A01 T01020078  RH  085%=      5-min Rain = 0
KWE3 161655Z 00012G17KT 10/08 A2995 RMK A01 T01030081  RH  086%=      5-min Rain = 0
KWE3 161656Z 35014KT 10/08 A2995 RMK A01 T01040075  RH  082%=      5-min Rain = 0
KWE3 161657Z 35014KT 10/07 A2995 RMK A01 T01040074  RH  082%=      5-min Rain = 0
KWE3 161658Z 35014G19KT 10/08 A2995 RMK A01 T01040075  RH  082%=      5-min Rain = 0
KWE3 161659Z 35015KT 10/07 A2995 RMK A01 T01040073  RH  081%=      5-min Rain = 0
KWE3 161700Z 34013KT 10/07 A2995 RMK A01 T01040074  RH  081%=      5-min Rain = 0
KWE3 161701Z 34014KT 11/08 A2995 RMK A01 T01050075  RH  082%=      5-min Rain = 0
KWE3 161702Z 34013KT 11/07 A2995 RMK A01 T01050074  RH  081%=      5-min Rain = 0
KWE3 161703Z 34016KT 11/08 A2995 RMK A01 T01050075  RH  082%=      5-min Rain = 0
KWE3 161704Z 34016KT 11/07 A2995 RMK A01 T01050072  RH  080%=      5-min Rain = 0
KWE3 161705Z 35016KT 11/07 A2994 RMK A01 T01050072  RH  080%=      5-min Rain = 0
KWE3 161706Z 35016KT 10/07 A2994 RMK A01 T01040072  RH  080%=      5-min Rain = 0
KWE3 161707Z 36014KT 11/07 A2995 RMK A01 T01050073  RH  080%=      5-min Rain = 0
KWE3 161708Z 35014KT 11/08 A2995 RMK A01 T01080077  RH  081%=      5-min Rain = 0
KWE3 161709Z 34016KT 11/07 A2995 RMK A01 T01090073  RH  079%=      5-min Rain = 0
KWE3 161710Z 34018KT 11/07 A2995 RMK A01 T01080073  RH  079%=      5-min Rain = 0
KWE3 161711Z 34016KT 11/07 A2995 RMK A01 T01070074  RH  080%=      5-min Rain = 0
KWE3 161712Z 35015KT 11/07 A2995 RMK A01 T01070074  RH  080%=      5-min Rain = 0
KWE3 161713Z 35015KT 11/07 A2995 RMK A01 T01070074  RH  080%=      5-min Rain = 0
KWE3 161714Z 35014KT 11/07 A2995 RMK A01 T01070073  RH  079%=      5-min Rain = 0
KWE3 161715Z 35013KT 11/08 A2995 RMK A01 T01080075  RH  080%=      5-min Rain = 0
KWE3 161716Z 34015KT 11/08 A2995 RMK A01 T01100079  RH  081%=      5-min Rain = 0
KWE3 161717Z 35015KT 11/08 A2995 RMK A01 T01110077  RH  079%=      5-min Rain = 0
KWE3 161718Z 35017KT 11/08 A2995 RMK A01 T01110075  RH  078%=      5-min Rain = 0
KWE3 161719Z 35017KT 11/07 A2995 RMK A01 T01100073  RH  078%=      5-min Rain = 0
KWE3 161720Z 36016KT 11/07 A2995 RMK A01 T01090073  RH  078%=      5-min Rain = 0
KWE3 161721Z 36014KT 11/07 A2995 RMK A01 T01080074  RH  079%=      5-min Rain = 0
KWE3 161722Z 36017KT 11/07 A2995 RMK A01 T01080074  RH  079%=      5-min Rain = 0
KWE3 161723Z 36017KT 11/07 A2995 RMK A01 T01080073  RH  079%=      5-min Rain = 0
KWE3 161724Z 36018KT 11/07 A2995 RMK A01 T01080073  RH  079%=      5-min Rain = 0
KWE3 161725Z 35015G21KT 11/08 A2995 RMK A01 T01080075  RH  080%=      5-min Rain = 0
KWE3 161726Z 35016KT 11/08 A2995 RMK A01 T01100077  RH  080%=      5-min Rain = 0
KWE3 161727Z 36016KT 11/07 A2995 RMK A01 T01120073  RH  077%=      5-min Rain = 0
KWE3 161728Z 36014KT 11/08 A2995 RMK A01 T01130077  RH  078%=      5-min Rain = 0
KWE3 161729Z 00017KT 12/08 A2995 RMK A01 T01160080  RH  079%=      5-min Rain = 0
KWE3 161730Z 00016KT 12/08 A2995 RMK A01 T01160078  RH  077%=      5-min Rain = 0
KWE3 161731Z 00017KT 11/08 A2995 RMK A01 T01130075  RH  077%=      5-min Rain = 0
KWE3 161732Z 00016KT 11/07 A2995 RMK A01 T01120074  RH  077%=      5-min Rain = 0
KWE3 161733Z 35018G23KT 11/08 A2995 RMK A01 T01110075  RH  078%=      5-min Rain = 0
KWE3 161734Z 35016KT 11/08 A2995 RMK A01 T01110075  RH  079%=      5-min Rain = 0
KWE3 161735Z 36017KT 11/07 A2995 RMK A01 T01110074  RH  078%=      5-min Rain = 0
KWE3 161736Z 35015KT 11/07 A2995 RMK A01 T01110073  RH  077%=      5-min Rain = 0
KWE3 161737Z 36015KT 11/08 A2995 RMK A01 T01110076  RH  079%=      5-min Rain = 0
KWE3 161738Z 35016KT 11/07 A2995 RMK A01 T01110073  RH  078%=      5-min Rain = 0
KWE3 161739Z 36017KT 11/08 A2995 RMK A01 T01110075  RH  079%=      5-min Rain = 0
KWE3 161740Z 00017KT 11/07 A2995 RMK A01 T01110074  RH  078%=      5-min Rain = 0
KWE3 161741Z 35016KT 11/08 A2995 RMK A01 T01110076  RH  079%=      5-min Rain = 0
KWE3 161742Z 35016G21KT 11/08 A2995 RMK A01 T01140078  RH  079%=      5-min Rain = 0
KWE3 161743Z 36016KT 12/08 A2995 RMK A01 T01150077  RH  078%=      5-min Rain = 0
KWE3 161744Z 35016KT 12/07 A2995 RMK A01 T01150074  RH  076%=      5-min Rain = 0
KWE3 161745Z 35016KT 11/07 A2995 RMK A01 T01130072  RH  076%=      5-min Rain = 0
KWE3 161746Z 35016KT 11/07 A2995 RMK A01 T01120073  RH  077%=      5-min Rain = 0
KWE3 161747Z 35015KT 11/07 A2995 RMK A01 T01120074  RH  078%=      5-min Rain = 0
KWE3 161748Z 35018KT 11/07 A2995 RMK A01 T01120074  RH  078%=      5-min Rain = 0
KWE3 161749Z 36017KT 11/07 A2995 RMK A01 T01110072  RH  077%=      5-min Rain = 0
KWE3 161750Z 00017KT 11/07 A2995 RMK A01 T01120072  RH  077%=      5-min Rain = 0
KWE3 161751Z 36019G24KT 11/07 A2995 RMK A01 T01110071  RH  076%=      5-min Rain = 0
KWE3 161752Z 35020KT 11/07 A2995 RMK A01 T01100070  RH  076%=      5-min Rain = 0
KWE3 161753Z 35019KT 11/07 A2995 RMK A01 T01100071  RH  077%=      5-min Rain = 0
KWE3 161754Z 35018KT 11/07 A2995 RMK A01 T01100069  RH  076%=      5-min Rain = 0
KWE3 161755Z 35016KT 11/07 A2995 RMK A01 T01110071  RH  077%=      5-min Rain = 0
KWE3 161756Z 35015KT 11/07 A2995 RMK A01 T01110072  RH  077%=      5-min Rain = 0
KWE3 161757Z 34013G19KT 11/07 A2995 RMK A01 T01110072  RH  077%=      5-min Rain = 0
KWE3 161758Z 34015KT 11/07 A2995 RMK A01 T01120074  RH  077%=      5-min Rain = 0
KWE3 161759Z 35014KT 11/07 A2995 RMK A01 T01130074  RH  077%=      5-min Rain = 0
KWE3 161800Z 35014KT 11/08 A2995 RMK A01 T01140075  RH  077%=      5-min Rain = 0
KWE3 161801Z 35012KT 11/08 A2995 RMK A01 T01140076  RH  078%=      5-min Rain = 0
KWE3 161802Z 35014KT 12/08 A2995 RMK A01 T01150077  RH  078%=      5-min Rain = 0
KWE3 161803Z 35019G26KT 12/07 A2995 RMK A01 T01150072  RH  075%=      5-min Rain = 0
KWE3 161804Z 36018G23KT 11/07 A2995 RMK A01 T01120067  RH  074%=      5-min Rain = 0
KWE3 161805Z 00020KT 11/07 A2995 RMK A01 T01110068  RH  075%=      5-min Rain = 0
KWE3 161806Z 36018G23KT 11/07 A2996 RMK A01 T01110066  RH  074%=      5-min Rain = 0
KWE3 161807Z 00017KT 11/07 A2996 RMK A01 T01110068  RH  075%=      5-min Rain = 0
KWE3 161808Z 35017KT 11/07 A2995 RMK A01 T01120071  RH  075%=      5-min Rain = 0
KWE3 161809Z 35016G22KT 11/07 A2995 RMK A01 T01140073  RH  076%=      5-min Rain = 0
KWE3 161810Z 36017KT 12/07 A2995 RMK A01 T01160069  RH  073%=      5-min Rain = 0
KWE3 161811Z 36017KT 12/07 A2995 RMK A01 T01190072  RH  073%=      5-min Rain = 0
KWE3 161812Z 35017G22KT 12/07 A2995 RMK A01 T01210072  RH  072%=      5-min Rain = 0
KWE3 161813Z 35019KT 12/07 A2995 RMK A01 T01210072  RH  072%=      5-min Rain = 0
KWE3 161814Z 35018KT 12/07 A2995 RMK A01 T01180070  RH  072%=      5-min Rain = 0
KWE3 161815Z 36016KT 12/07 A2995 RMK A01 T01160068  RH  073%=      5-min Rain = 0
KWE3 161816Z 00016KT 12/07 A2996 RMK A01 T01150071  RH  074%=      5-min Rain = 0
KWE3 161817Z 00015KT 11/07 A2996 RMK A01 T01140071  RH  075%=      5-min Rain = 0
KWE3 161818Z 00014G19KT 11/07 A2995 RMK A01 T01140072  RH  075%=      5-min Rain = 0
KWE3 161819Z 36015KT 11/07 A2995 RMK A01 T01140071  RH  075%=      5-min Rain = 0
KWE3 161820Z 00015G20KT 11/07 A2995 RMK A01 T01140069  RH  074%=      5-min Rain = 0
KWE3 161821Z 36018G24KT 11/07 A2995 RMK A01 T01130068  RH  074%=      5-min Rain = 0
KWE3 161822Z 35017KT 11/07 A2995 RMK A01 T01120068  RH  074%=      5-min Rain = 0
KWE3 161823Z 35015KT 11/07 A2995 RMK A01 T01130069  RH  074%=      5-min Rain = 0
KWE3 161824Z 35013KT 11/07 A2995 RMK A01 T01140070  RH  074%=      5-min Rain = 0
KWE3 161825Z 35016KT 12/07 A2995 RMK A01 T01150070  RH  074%=      5-min Rain = 0
KWE3 161826Z 35016KT 12/07 A2995 RMK A01 T01150067  RH  072%=      5-min Rain = 0
KWE3 161827Z 35018G26KT 12/07 A2995 RMK A01 T01150069  RH  073%=      5-min Rain = 0
KWE3 161828Z 35019G26KT 12/06 A2995 RMK A01 T01160064  RH  070%=      5-min Rain = 0
KWE3 161829Z 34019KT 12/06 A2995 RMK A01 T01150063  RH  071%=      5-min Rain = 0
KWE3 161830Z 34017KT 12/07 A2995 RMK A01 T01150066  RH  072%=      5-min Rain = 0
KWE3 161831Z 34020G25KT 12/07 A2995 RMK A01 T01160066  RH  072%=      5-min Rain = 0
KWE3 161832Z 34020KT 12/06 A2995 RMK A01 T01160061  RH  069%=      5-min Rain = 0
KWE3 161833Z 34019KT 12/06 A2995 RMK A01 T01160060  RH  069%=      5-min Rain = 0
KWE3 161834Z 34020G26KT 12/06 A2995 RMK A01 T01170060  RH  068%=      5-min Rain = 0
KWE3 161835Z 34019KT 12/06 A2995 RMK A01 T01170061  RH  068%=      5-min Rain = 0
KWE3 161836Z 34017KT 12/06 A2995 RMK A01 T01180063  RH  069%=      5-min Rain = 0
KWE3 161837Z 35016KT 12/07 A2995 RMK A01 T01200067  RH  070%=      5-min Rain = 0
KWE3 161838Z 34016KT 12/07 A2995 RMK A01 T01220067  RH  069%=      5-min Rain = 0
KWE3 161839Z 34018G24KT 12/06 A2995 RMK A01 T01220064  RH  068%=      5-min Rain = 0
KWE3 161840Z 35020G26KT 12/06 A2995 RMK A01 T01230062  RH  066%=      5-min Rain = 0
KWE3 161841Z 35016G22KT 12/07 A2995 RMK A01 T01240066  RH  067%=      5-min Rain = 0
KWE3 161842Z 34018G23KT 13/07 A2995 RMK A01 T01260065  RH  067%=      5-min Rain = 0
KWE3 161843Z 34019G24KT 12/06 A2995 RMK A01 T01240063  RH  066%=      5-min Rain = 0
KWE3 161844Z 35017KT 12/07 A2995 RMK A01 T01230068  RH  069%=      5-min Rain = 0
KWE3 161845Z 34021G26KT 12/07 A2995 RMK A01 T01230068  RH  069%=      5-min Rain = 0
KWE3 161846Z 34021G27KT 12/06 A2995 RMK A01 T01210062  RH  067%=      5-min Rain = 0
KWE3 161847Z 33021KT 12/06 A2995 RMK A01 T01200061  RH  067%=      5-min Rain = 0
KWE3 161848Z 33022G28KT 12/06 A2995 RMK A01 T01200060  RH  067%=      5-min Rain = 0
KWE3 161849Z 34019G24KT 12/06 A2995 RMK A01 T01200059  RH  066%=      5-min Rain = 0
KWE3 161850Z 34017G22KT 12/06 A2995 RMK A01 T01210064  RH  068%=      5-min Rain = 0
KWE3 161851Z 35019G24KT 12/07 A2995 RMK A01 T01240065  RH  067%=      5-min Rain = 0
KWE3 161852Z 35021G26KT 12/06 A2995 RMK A01 T01240057  RH  064%=      5-min Rain = 0
KWE3 161853Z 35020KT 12/06 A2995 RMK A01 T01230059  RH  065%=      5-min Rain = 0
KWE3 161854Z 35019KT 12/06 A2995 RMK A01 T01240055  RH  063%=      5-min Rain = 0
KWE3 161855Z 36021KT 13/05 A2996 RMK A01 T01250054  RH  062%=      5-min Rain = 0
KWE3 161856Z 35019KT 13/06 A2995 RMK A01 T01260058  RH  063%=      5-min Rain = 0
KWE3 161857Z 34018G23KT 13/06 A2995 RMK A01 T01290058  RH  062%=      5-min Rain = 0
KWE3 161858Z 34017KT 13/06 A2995 RMK A01 T01300057  RH  061%=      5-min Rain = 0
KWE3 161859Z 34016KT 13/06 A2995 RMK A01 T01320060  RH  062%=      5-min Rain = 0
KWE3 161900Z 34020KT 13/06 A2995 RMK A01 T01320055  RH  060%=      5-min Rain = 0
KWE3 161901Z 34017G22KT 13/05 A2995 RMK A01 T01270052  RH  060%=      5-min Rain = 0
KWE3 161902Z 35016G21KT 13/06 A2996 RMK A01 T01260059  RH  064%=      5-min Rain = 0
KWE3 161903Z 34017KT 13/06 A2996 RMK A01 T01270057  RH  063%=      5-min Rain = 0
KWE3 161904Z 34016G21KT 13/06 A2996 RMK A01 T01260056  RH  062%=      5-min Rain = 0
KWE3 161905Z 35013KT 13/06 A2996 RMK A01 T01260056  RH  063%=      5-min Rain = 0
KWE3 161906Z 34016G27KT 13/06 A2995 RMK A01 T01270063  RH  065%=      5-min Rain = 0
KWE3 161907Z 00016G21KT 13/07 A2996 RMK A01 T01290065  RH  065%=      5-min Rain = 0
KWE3 161908Z 00015KT 13/06 A2996 RMK A01 T01290056  RH  061%=      5-min Rain = 0
KWE3 161909Z 00014KT 13/06 A2996 RMK A01 T01260058  RH  063%=      5-min Rain = 0
KWE3 161910Z 36015KT 13/06 A2996 RMK A01 T01250063  RH  066%=      5-min Rain = 0
KWE3 161911Z 36016KT 13/06 A2996 RMK A01 T01260064  RH  066%=      5-min Rain = 0
KWE3 161912Z 01017KT 13/07 A2996 RMK A01 T01260065  RH  066%=      5-min Rain = 0
KWE3 161913Z 01017KT 13/06 A2996 RMK A01 T01260063  RH  066%=      5-min Rain = 0
KWE3 161914Z 00018KT 13/06 A2996 RMK A01 T01250061  RH  065%=      5-min Rain = 0
KWE3 161915Z 35016G21KT 12/06 A2996 RMK A01 T01240063  RH  066%=      5-min Rain = 0
KWE3 161916Z 35017KT 13/06 A2996 RMK A01 T01250060  RH  065%=      5-min Rain = 0
KWE3 161917Z 01019KT 13/06 A2996 RMK A01 T01250061  RH  065%=      5-min Rain = 0
KWE3 161918Z 01018KT 13/06 A2996 RMK A01 T01250059  RH  064%=      5-min Rain = 0
KWE3 161919Z 00017KT 13/06 A2996 RMK A01 T01250062  RH  065%=      5-min Rain = 0
KWE3 161920Z 00016KT 13/07 A2996 RMK A01 T01260066  RH  067%=      5-min Rain = 0
KWE3 161921Z 00019KT 13/06 A2996 RMK A01 T01270064  RH  065%=      5-min Rain = 0
KWE3 161922Z 00017KT 13/06 A2996 RMK A01 T01270062  RH  064%=      5-min Rain = 0
KWE3 161923Z 00019KT 13/06 A2996 RMK A01 T01270064  RH  066%=      5-min Rain = 0
KWE3 161924Z 35017KT 13/07 A2996 RMK A01 T01270066  RH  066%=      5-min Rain = 0
KWE3 161925Z 35018G24KT 13/06 A2996 RMK A01 T01270064  RH  066%=      5-min Rain = 0
KWE3 161926Z 35021KT 13/06 A2995 RMK A01 T01270063  RH  065%=      5-min Rain = 0
KWE3 161927Z 00018KT 13/07 A2996 RMK A01 T01270065  RH  066%=      5-min Rain = 0
KWE3 161928Z 36018KT 13/07 A2996 RMK A01 T01270067  RH  067%=      5-min Rain = 0
KWE3 161929Z 36020KT 13/07 A2996 RMK A01 T01270067  RH  067%=      5-min Rain = 0
KWE3 161930Z 35019KT 13/06 A2996 RMK A01 T01280064  RH  065%=      5-min Rain = 0
KWE3 161931Z 35020KT 13/06 A2996 RMK A01 T01300064  RH  064%=      5-min Rain = 0
KWE3 161932Z 35019G25KT 13/06 A2996 RMK A01 T01290064  RH  064%=      5-min Rain = 0
KWE3 161933Z 35021KT 13/06 A2996 RMK A01 T01280060  RH  063%=      5-min Rain = 0
KWE3 161934Z 34018KT 13/06 A2996 RMK A01 T01260061  RH  065%=      5-min Rain = 0
KWE3 161935Z 34017G22KT 13/07 A2996 RMK A01 T01270066  RH  066%=      5-min Rain = 0
KWE3 161936Z 35019G24KT 13/06 A2996 RMK A01 T01280064  RH  065%=      5-min Rain = 0
KWE3 161937Z 35019G24KT 13/06 A2996 RMK A01 T01280063  RH  065%=      5-min Rain = 0
KWE3 161938Z 35017KT 13/06 A2996 RMK A01 T01260060  RH  064%=      5-min Rain = 0
KWE3 161939Z 35019G24KT 13/06 A2996 RMK A01 T01260064  RH  066%=      5-min Rain = 0
KWE3 161940Z 35018G23KT 13/07 A2996 RMK A01 T01260065  RH  066%=      5-min Rain = 0
KWE3 161941Z 35020G25KT 13/06 A2996 RMK A01 T01260061  RH  064%=      5-min Rain = 0
KWE3 161942Z 35020G25KT 13/06 A2996 RMK A01 T01260059  RH  064%=      5-min Rain = 0
KWE3 161943Z 35019KT 13/06 A2996 RMK A01 T01260060  RH  064%=      5-min Rain = 0
KWE3 161944Z 34020KT 13/06 A2996 RMK A01 T01270058  RH  063%=      5-min Rain = 0
KWE3 161945Z 34018G23KT 13/06 A2996 RMK A01 T01270060  RH  063%=      5-min Rain = 0
KWE3 161946Z 35018KT 13/06 A2996 RMK A01 T01280061  RH  064%=      5-min Rain = 0
KWE3 161947Z 34019KT 13/06 A2996 RMK A01 T01280061  RH  064%=      5-min Rain = 0
KWE3 161948Z 34018G23KT 13/06 A2996 RMK A01 T01290064  RH  065%=      5-min Rain = 0
KWE3 161949Z 34019KT 13/06 A2996 RMK A01 T01300062  RH  063%=      5-min Rain = 0
KWE3 161950Z 35021KT 13/06 A2996 RMK A01 T01330064  RH  063%=      5-min Rain = 0
KWE3 161951Z 35019G24KT 13/06 A2996 RMK A01 T01340064  RH  063%=      5-min Rain = 0
KWE3 161952Z 35020G25KT 14/07 A2996 RMK A01 T01350065  RH  063%=      5-min Rain = 0
KWE3 161953Z 34019KT 13/06 A2996 RMK A01 T01330060  RH  061%=      5-min Rain = 0
KWE3 161954Z 34020KT 13/06 A2996 RMK A01 T01320061  RH  062%=      5-min Rain = 0
KWE3 161955Z 34020G27KT 13/06 A2996 RMK A01 T01340064  RH  063%=      5-min Rain = 0
KWE3 161956Z 34022KT 14/06 A2996 RMK A01 T01350061  RH  061%=      5-min Rain = 0
KWE3 161957Z 34020G27KT 14/07 A2996 RMK A01 T01370070  RH  064%=      5-min Rain = 0
KWE3 161958Z 34021G26KT 14/07 A2996 RMK A01 T01410072  RH  063%=      5-min Rain = 0
KWE3 161959Z 34019G26KT 14/06 A2996 RMK A01 T01400064  RH  060%=      5-min Rain = 0
KWE3 162000Z 33021KT 14/07 A2996 RMK A01 T01370068  RH  063%=      5-min Rain = 0
KWE3 162001Z 34020G25KT 14/06 A2996 RMK A01 T01350064  RH  062%=      5-min Rain = 0
KWE3 162002Z 35021G26KT 13/06 A2996 RMK A01 T01320058  RH  061%=      5-min Rain = 0
KWE3 162003Z 34019G24KT 13/06 A2996 RMK A01 T01300060  RH  062%=      5-min Rain = 0
KWE3 162004Z 34019KT 13/06 A2996 RMK A01 T01320059  RH  061%=      5-min Rain = 0
KWE3 162005Z 34019KT 13/06 A2996 RMK A01 T01330064  RH  063%=      5-min Rain = 0
KWE3 162006Z 34018G23KT 13/06 A2996 RMK A01 T01340062  RH  062%=      5-min Rain = 0
KWE3 162007Z 33020G25KT 14/06 A2996 RMK A01 T01380063  RH  061%=      5-min Rain = 0
KWE3 162008Z 34021G27KT 14/06 A2996 RMK A01 T01390062  RH  060%=      5-min Rain = 0
KWE3 162009Z 35020KT 14/07 A2996 RMK A01 T01400065  RH  061%=      5-min Rain = 0
KWE3 162010Z 35019G25KT 14/06 A2996 RMK A01 T01390064  RH  060%=      5-min Rain = 0
KWE3 162011Z 34021KT 14/07 A2996 RMK A01 T01400066  RH  061%=      5-min Rain = 0
KWE3 162012Z 34020G26KT 14/07 A2996 RMK A01 T01390065  RH  061%=      5-min Rain = 0
KWE3 162013Z 35025G30KT 14/07 A2996 RMK A01 T01380069  RH  063%=      5-min Rain = 0
KWE3 162014Z 35024G30KT 13/06 A2996 RMK A01 T01340061  RH  061%=      5-min Rain = 0
KWE3 162015Z 35020KT 13/06 A2996 RMK A01 T01300063  RH  064%=      5-min Rain = 0
KWE3 162016Z 34023KT 13/06 A2996 RMK A01 T01280061  RH  064%=      5-min Rain = 0
KWE3 162017Z 35021G26KT 13/06 A2996 RMK A01 T01260058  RH  063%=      5-min Rain = 0
KWE3 162018Z 35021KT 13/06 A2996 RMK A01 T01260061  RH  065%=      5-min Rain = 0
KWE3 162019Z 35023G28KT 13/06 A2996 RMK A01 T01260059  RH  063%=      5-min Rain = 0
KWE3 162020Z 35020G25KT 13/06 A2996 RMK A01 T01260060  RH  064%=      5-min Rain = 0
KWE3 162021Z 35020KT 13/06 A2996 RMK A01 T01270062  RH  064%=      5-min Rain = 0
KWE3 162022Z 35020G25KT 13/06 A2996 RMK A01 T01280062  RH  064%=      5-min Rain = 0
KWE3 162023Z 34021G26KT 13/06 A2996 RMK A01 T01270060  RH  064%=      5-min Rain = 0
KWE3 162024Z 34021KT 13/06 A2996 RMK A01 T01260060  RH  064%=      5-min Rain = 0
KWE3 162025Z 34021KT 13/06 A2996 RMK A01 T01250061  RH  065%=      5-min Rain = 0
KWE3 162026Z 34020KT 13/06 A2996 RMK A01 T01250059  RH  064%=      5-min Rain = 0
KWE3 162027Z 34019KT 13/06 A2996 RMK A01 T01250060  RH  065%=      5-min Rain = 0
KWE3 162028Z 35018KT 13/06 A2996 RMK A01 T01250060  RH  064%=      5-min Rain = 0
KWE3 162029Z 34018G23KT 13/06 A2997 RMK A01 T01260061  RH  064%=      5-min Rain = 0
KWE3 162030Z 34019G24KT 13/06 A2997 RMK A01 T01280061  RH  064%=      5-min Rain = 0
KWE3 162031Z 34017G22KT 13/06 A2997 RMK A01 T01280061  RH  064%=      5-min Rain = 0
KWE3 162032Z 35019G25KT 13/06 A2997 RMK A01 T01310064  RH  064%=      5-min Rain = 0
KWE3 162033Z 35022KT 13/06 A2997 RMK A01 T01330059  RH  061%=      5-min Rain = 0
KWE3 162034Z 36019G25KT 13/06 A2997 RMK A01 T01300058  RH  062%=      5-min Rain = 0
KWE3 162035Z 36017G23KT 13/07 A2997 RMK A01 T01290065  RH  065%=      5-min Rain = 0
KWE3 162036Z 35017G22KT 13/07 A2997 RMK A01 T01310069  RH  066%=      5-min Rain = 0
KWE3 162037Z 34020G25KT 13/06 A2997 RMK A01 T01310061  RH  063%=      5-min Rain = 0
KWE3 162038Z 34020KT 13/06 A2997 RMK A01 T01280057  RH  062%=      5-min Rain = 0
KWE3 162039Z 34018KT 13/06 A2997 RMK A01 T01270062  RH  064%=      5-min Rain = 0
KWE3 162040Z 34019G25KT 13/06 A2997 RMK A01 T01270062  RH  065%=      5-min Rain = 0
KWE3 162041Z 34022G27KT 13/06 A2997 RMK A01 T01260059  RH  064%=      5-min Rain = 0
KWE3 162042Z 34023KT 12/06 A2997 RMK A01 T01240058  RH  064%=      5-min Rain = 0
KWE3 162043Z 34020KT 12/06 A2997 RMK A01 T01220059  RH  065%=      5-min Rain = 0
KWE3 162044Z 35021KT 12/06 A2997 RMK A01 T01210059  RH  066%=      5-min Rain = 0
KWE3 162045Z 34018G23KT 12/06 A2997 RMK A01 T01210061  RH  067%=      5-min Rain = 0
KWE3 162046Z 34018G23KT 12/06 A2997 RMK A01 T01210064  RH  068%=      5-min Rain = 0
KWE3 162047Z 34018G23KT 12/06 A2997 RMK A01 T01210062  RH  067%=      5-min Rain = 0
KWE3 162048Z 35018KT 12/06 A2997 RMK A01 T01210063  RH  068%=      5-min Rain = 0
KWE3 162049Z 35018G23KT 12/06 A2997 RMK A01 T01210060  RH  066%=      5-min Rain = 0
KWE3 162050Z 34019G24KT 12/06 A2997 RMK A01 T01210061  RH  067%=      5-min Rain = 0
KWE3 162051Z 34019KT 12/06 A2997 RMK A01 T01220060  RH  066%=      5-min Rain = 0
KWE3 162052Z 34020G25KT 12/06 A2997 RMK A01 T01230062  RH  066%=      5-min Rain = 0
KWE3 162053Z 35018KT 12/06 A2997 RMK A01 T01230061  RH  066%=      5-min Rain = 0
KWE3 162054Z 35021G26KT 12/06 A2997 RMK A01 T01240063  RH  066%=      5-min Rain = 0
KWE3 162055Z 35024G30KT 13/06 A2996 RMK A01 T01260061  RH  065%=      5-min Rain = 0
KWE3 162056Z 35022G28KT 13/06 A2997 RMK A01 T01260057  RH  063%=      5-min Rain = 0
KWE3 162057Z 35019KT 13/06 A2997 RMK A01 T01270063  RH  065%=      5-min Rain = 0
KWE3 162058Z 36020G26KT 13/07 A2997 RMK A01 T01310067  RH  065%=      5-min Rain = 0
KWE3 162059Z 35021G26KT 13/06 A2997 RMK A01 T01310061  RH  062%=      5-min Rain = 0
KWE3 162100Z 35022KT 13/06 A2997 RMK A01 T01280060  RH  063%=      5-min Rain = 0
KWE3 162101Z 35020G26KT 13/06 A2997 RMK A01 T01270062  RH  064%=      5-min Rain = 0
KWE3 162102Z 34022G29KT 13/06 A2996 RMK A01 T01270060  RH  064%=      5-min Rain = 0
KWE3 162103Z 34023G29KT 13/06 A2996 RMK A01 T01270058  RH  063%=      5-min Rain = 0
KWE3 162104Z 35022G28KT 13/06 A2996 RMK A01 T01260057  RH  063%=      5-min Rain = 0
KWE3 162105Z 35022G28KT 13/06 A2996 RMK A01 T01270058  RH  062%=      5-min Rain = 0
KWE3 162106Z 35021KT 13/06 A2997 RMK A01 T01270057  RH  062%=      5-min Rain = 0
KWE3 162107Z 35021G26KT 13/06 A2997 RMK A01 T01250057  RH  063%=      5-min Rain = 0
KWE3 162108Z 35019G24KT 12/06 A2997 RMK A01 T01240058  RH  064%=      5-min Rain = 0
KWE3 162109Z 00018G25KT 12/06 A2997 RMK A01 T01240058  RH  064%=      5-min Rain = 0
KWE3 162110Z 36018G23KT 13/06 A2997 RMK A01 T01250063  RH  066%=      5-min Rain = 0
KWE3 162111Z 35016KT 13/07 A2997 RMK A01 T01300066  RH  065%=      5-min Rain = 0
KWE3 162112Z 34019G25KT 13/07 A2996 RMK A01 T01330066  RH  064%=      5-min Rain = 0
KWE3 162113Z 34019G24KT 13/06 A2996 RMK A01 T01340061  RH  061%=      5-min Rain = 0
KWE3 162114Z 35020G26KT 14/06 A2996 RMK A01 T01350064  RH  062%=      5-min Rain = 0
KWE3 162115Z 35019G25KT 14/07 A2996 RMK A01 T01380066  RH  062%=      5-min Rain = 0
KWE3 162116Z 35019G25KT 14/07 A2996 RMK A01 T01410068  RH  061%=      5-min Rain = 0
KWE3 162117Z 35020G25KT 14/07 A2996 RMK A01 T01420065  RH  060%=      5-min Rain = 0
KWE3 162118Z 34019G25KT 14/06 A2996 RMK A01 T01410063  RH  059%=      5-min Rain = 0
KWE3 162119Z 34021G28KT 14/07 A2996 RMK A01 T01400067  RH  062%=      5-min Rain = 0
KWE3 162120Z 34022G27KT 13/06 A2996 RMK A01 T01340062  RH  061%=      5-min Rain = 0
KWE3 162121Z 35022G29KT 13/07 A2996 RMK A01 T01300069  RH  066%=      5-min Rain = 0
KWE3 162122Z 34024G29KT 13/06 A2996 RMK A01 T01270062  RH  064%=      5-min Rain = 0
KWE3 162123Z 34024KT 12/06 A2996 RMK A01 T01230060  RH  066%=      5-min Rain = 0
KWE3 162124Z 34021G29KT 12/06 A2997 RMK A01 T01220062  RH  067%=      5-min Rain = 0
KWE3 162125Z 34024KT 12/06 A2996 RMK A01 T01220060  RH  066%=      5-min Rain = 0
KWE3 162126Z 34023G28KT 12/06 A2996 RMK A01 T01240061  RH  065%=      5-min Rain = 0
KWE3 162127Z 34023G28KT 13/06 A2997 RMK A01 T01280061  RH  064%=      5-min Rain = 0
KWE3 162128Z 35022KT 13/06 A2997 RMK A01 T01290062  RH  064%=      5-min Rain = 0
KWE3 162129Z 35020G26KT 13/06 A2997 RMK A01 T01290062  RH  064%=      5-min Rain = 0
KWE3 162130Z 35019G26KT 13/07 A2997 RMK A01 T01270065  RH  066%=      5-min Rain = 0
KWE3 162131Z 35023KT 13/06 A2997 RMK A01 T01250059  RH  064%=      5-min Rain = 0
KWE3 162132Z 35019G25KT 12/06 A2997 RMK A01 T01230056  RH  064%=      5-min Rain = 0
KWE3 162133Z 35024KT 13/06 A2997 RMK A01 T01250060  RH  065%=      5-min Rain = 0
KWE3 162134Z 36024G29KT 13/06 A2997 RMK A01 T01250059  RH  064%=      5-min Rain = 0
KWE3 162135Z 36021G27KT 12/06 A2997 RMK A01 T01220056  RH  064%=      5-min Rain = 0
KWE3 162136Z 35021G26KT 12/06 A2997 RMK A01 T01200060  RH  067%=      5-min Rain = 0
KWE3 162137Z 35018G23KT 12/07 A2997 RMK A01 T01230065  RH  068%=      5-min Rain = 0
KWE3 162138Z 34021KT 13/07 A2997 RMK A01 T01290067  RH  066%=      5-min Rain = 0
KWE3 162139Z 35023KT 13/06 A2997 RMK A01 T01300063  RH  064%=      5-min Rain = 0
KWE3 162140Z 35022G27KT 13/06 A2997 RMK A01 T01290064  RH  065%=      5-min Rain = 0
KWE3 162141Z 35023KT 13/06 A2997 RMK A01 T01270064  RH  065%=      5-min Rain = 0
KWE3 162142Z 35023KT 12/06 A2997 RMK A01 T01230059  RH  065%=      5-min Rain = 0
KWE3 162143Z 35021KT 12/06 A2997 RMK A01 T01200055  RH  065%=      5-min Rain = 0
KWE3 162144Z 35021G26KT 12/06 A2997 RMK A01 T01180058  RH  067%=      5-min Rain = 0
KWE3 162145Z 00018KT 12/06 A2998 RMK A01 T01190063  RH  069%=      5-min Rain = 0
KWE3 162146Z 00021G27KT 12/06 A2998 RMK A01 T01210064  RH  068%=      5-min Rain = 0
KWE3 162147Z 36023G28KT 12/06 A2997 RMK A01 T01200063  RH  068%=      5-min Rain = 0
KWE3 162148Z 35025G31KT 12/06 A2997 RMK A01 T01180061  RH  068%=      5-min Rain = 0
KWE3 162149Z 35025G30KT 12/06 A2997 RMK A01 T01160056  RH  067%=      5-min Rain = 0
KWE3 162150Z 35024G30KT 11/06 A2997 RMK A01 T01140057  RH  068%=      5-min Rain = 0
KWE3 162151Z 35020G25KT 11/06 A2998 RMK A01 T01130059  RH  069%=      5-min Rain = 0
KWE3 162152Z 36023G28KT 11/06 A2998 RMK A01 T01130060  RH  070%=      5-min Rain = 0
KWE3 162153Z 35024G29KT 11/06 A2998 RMK A01 T01130060  RH  070%=      5-min Rain = 0
KWE3 162154Z 35024G30KT 11/06 A2998 RMK A01 T01120059  RH  070%=      5-min Rain = 0
KWE3 162155Z 34023G30KT 11/06 A2998 RMK A01 T01110060  RH  071%=      5-min Rain = 0
KWE3 162156Z 35021G28KT 11/06 A2998 RMK A01 T01110060  RH  071%=      5-min Rain = 0
KWE3 162157Z 35023G30KT 11/06 A2998 RMK A01 T01110060  RH  071%=      5-min Rain = 0
KWE3 162158Z 35025G30KT 11/06 A2998 RMK A01 T01100058  RH  070%=      5-min Rain = 0
KWE3 162159Z 35019G26KT 11/06 A2998 RMK A01 T01090058  RH  071%=      5-min Rain = 0
KWE3 162200Z 35022G27KT 11/06 A2998 RMK A01 T01100059  RH  071%=      5-min Rain = 0
KWE3 162201Z 36022G29KT 11/06 A2998 RMK A01 T01100059  RH  071%=      5-min Rain = 0
KWE3 162202Z 35021G26KT 11/06 A2998 RMK A01 T01100058  RH  070%=      5-min Rain = 0
KWE3 162203Z 35024G30KT 11/06 A2998 RMK A01 T01100060  RH  071%=      5-min Rain = 0
KWE3 162204Z 34025G31KT 11/06 A2998 RMK A01 T01100058  RH  070%=      5-min Rain = 0
KWE3 162205Z 34024G29KT 11/06 A2998 RMK A01 T01080057  RH  071%=      5-min Rain = 0
KWE3 162206Z 34023G28KT 11/06 A2998 RMK A01 T01080058  RH  071%=      5-min Rain = 0
KWE3 162207Z 35020G25KT 11/06 A2999 RMK A01 T01080059  RH  072%=      5-min Rain = 0
KWE3 162208Z 35021G28KT 11/06 A2999 RMK A01 T01080061  RH  073%=      5-min Rain = 0
KWE3 162209Z 35023KT 11/06 A2999 RMK A01 T01080059  RH  072%=      5-min Rain = 0
KWE3 162210Z 34020G27KT 11/06 A2999 RMK A01 T01070059  RH  072%=      5-min Rain = 0
KWE3 162211Z 34024G32KT 11/06 A2998 RMK A01 T01090058  RH  071%=      5-min Rain = 0
KWE3 162212Z 35024G30KT 11/06 A2999 RMK A01 T01120061  RH  071%=      5-min Rain = 0
KWE3 162213Z 36026G31KT 11/06 A2999 RMK A01 T01110057  RH  069%=      5-min Rain = 0
KWE3 162214Z 36026KT 11/06 A2999 RMK A01 T01080056  RH  070%=      5-min Rain = 0
KWE3 162215Z 35024KT 11/06 A2999 RMK A01 T01070056  RH  071%=      5-min Rain = 0
KWE3 162216Z 35022G27KT 11/06 A2999 RMK A01 T01080057  RH  071%=      5-min Rain = 0
KWE3 162217Z 35024G29KT 11/06 A2999 RMK A01 T01100057  RH  070%=      5-min Rain = 0
KWE3 162218Z 35024G29KT 11/06 A2999 RMK A01 T01090055  RH  070%=      5-min Rain = 0
KWE3 162219Z 35024G29KT 11/06 A2999 RMK A01 T01060055  RH  071%=      5-min Rain = 0
KWE3 162220Z 35022G29KT 10/05 A2999 RMK A01 T01040054  RH  071%=      5-min Rain = 0
KWE3 162221Z 35024G29KT 11/05 A2999 RMK A01 T01050054  RH  071%=      5-min Rain = 0
KWE3 162222Z 36023G29KT 11/06 A2999 RMK A01 T01070055  RH  070%=      5-min Rain = 0
KWE3 162223Z 36022KT 11/05 A2999 RMK A01 T01080053  RH  069%=      5-min Rain = 0
KWE3 162224Z 35023G29KT 11/06 A2999 RMK A01 T01090055  RH  069%=      5-min Rain = 0
KWE3 162225Z 36023G30KT 11/06 A2999 RMK A01 T01110055  RH  068%=      5-min Rain = 0
KWE3 162226Z 36023G28KT 11/05 A30 RMK A01 T01100054  RH  068%=      5-min Rain = 0
KWE3 162227Z 36024KT 11/05 A2999 RMK A01 T01090054  RH  069%=      5-min Rain = 0
KWE3 162228Z 36023KT 11/05 A30 RMK A01 T01070051  RH  068%=      5-min Rain = 0
KWE3 162229Z 36023G28KT 10/05 A30 RMK A01 T01040050  RH  070%=      5-min Rain = 0
KWE3 162230Z 35021G26KT 10/05 A30 RMK A01 T01020052  RH  071%=      5-min Rain = 0
KWE3 162231Z 35023KT 10/05 A30 RMK A01 T01020052  RH  071%=      5-min Rain = 0
KWE3 162232Z 36023KT 10/05 A30 RMK A01 T01010051  RH  071%=      5-min Rain = 0
KWE3 162233Z 35021G27KT 10/05 A30 RMK A01 T01020052  RH  072%=      5-min Rain = 0
KWE3 162234Z 35024G30KT 10/05 A30 RMK A01 T01020052  RH  071%=      5-min Rain = 0
KWE3 162235Z 35026KT 10/05 A30 RMK A01 T01010050  RH  071%=      5-min Rain = 0
KWE3 162236Z 35025G30KT 10/05 A30 RMK A01 T01010050  RH  071%=      5-min Rain = 0
KWE3 162237Z 35024KT 10/05 A30 RMK A01 T01000050  RH  071%=      5-min Rain = 0
KWE3 162238Z 35025G30KT 10/05 A30 RMK A01 T00990049  RH  071%=      5-min Rain = 0
KWE3 162239Z 35024G30KT 10/05 A30 RMK A01 T00990048  RH  070%=      5-min Rain = 0
KWE3 162240Z 35025KT 10/05 A30 RMK A01 T00990048  RH  071%=      5-min Rain = 0
KWE3 162241Z 35022G27KT 10/05 A30 RMK A01 T00990049  RH  071%=      5-min Rain = 0
KWE3 162242Z 35019G26KT 10/05 A30 RMK A01 T01000051  RH  072%=      5-min Rain = 0
KWE3 162243Z 35021G26KT 10/05 A30 RMK A01 T01000052  RH  072%=      5-min Rain = 0
KWE3 162244Z 35018G23KT 10/06 A30 RMK A01 T01020055  RH  073%=      5-min Rain = 0
KWE3 162245Z 35023G29KT 11/06 A3001 RMK A01 T01050057  RH  072%=      5-min Rain = 0
KWE3 162246Z 35023G28KT 11/05 A30 RMK A01 T01050053  RH  070%=      5-min Rain = 0
KWE3 162247Z 36021G26KT 10/05 A3001 RMK A01 T01020052  RH  071%=      5-min Rain = 0
KWE3 162248Z 00019G24KT 10/05 A3001 RMK A01 T01010054  RH  073%=      5-min Rain = 0
KWE3 162249Z 36021G30KT 10/06 A3001 RMK A01 T01000055  RH  073%=      5-min Rain = 0
KWE3 162250Z 36022G29KT 10/05 A3001 RMK A01 T00990051  RH  072%=      5-min Rain = 0
KWE3 162251Z 35023G29KT 10/05 A3001 RMK A01 T00990052  RH  073%=      5-min Rain = 0
KWE3 162252Z 35022G29KT 10/05 A3001 RMK A01 T00980052  RH  073%=      5-min Rain = 0
KWE3 162253Z 36024G29KT 10/05 A3001 RMK A01 T00980049  RH  071%=      5-min Rain = 0
KWE3 162254Z 00022G27KT 10/05 A3001 RMK A01 T00980050  RH  072%=      5-min Rain = 0
KWE3 162255Z 36021G26KT 10/05 A3001 RMK A01 T00980050  RH  072%=      5-min Rain = 0
KWE3 162256Z 35018G23KT 10/05 A3001 RMK A01 T00980053  RH  073%=      5-min Rain = 0
KWE3 162257Z 36021KT 10/05 A3001 RMK A01 T00990052  RH  073%=      5-min Rain = 0
KWE3 162258Z 36021G26KT 10/05 A3002 RMK A01 T00990051  RH  072%=      5-min Rain = 0
KWE3 162259Z 00020KT 10/05 A3002 RMK A01 T00980052  RH  073%=      5-min Rain = 0
KWE3 162300Z 35019G24KT 10/05 A3002 RMK A01 T00980054  RH  074%=      5-min Rain = 0
KWE3 162301Z 35020G26KT 10/05 A3002 RMK A01 T00980052  RH  073%=      5-min Rain = 0
KWE3 162302Z 36021G26KT 10/05 A3002 RMK A01 T00980052  RH  073%=      5-min Rain = 0
KWE3 162303Z 35022G28KT 10/05 A3002 RMK A01 T00970050  RH  073%=      5-min Rain = 0
KWE3 162304Z 35022G28KT 10/05 A3002 RMK A01 T00960049  RH  073%=      5-min Rain = 0
KWE3 162305Z 35021G27KT 10/05 A3002 RMK A01 T00950049  RH  073%=      5-min Rain = 0
KWE3 162306Z 35022KT 10/05 A3002 RMK A01 T00950049  RH  073%=      5-min Rain = 0
KWE3 162307Z 35020KT 09/05 A3002 RMK A01 T00940049  RH  074%=      5-min Rain = 0
KWE3 162308Z 35019G26KT 09/05 A3002 RMK A01 T00940052  RH  075%=      5-min Rain = 0
KWE3 162309Z 35022G29KT 10/05 A3002 RMK A01 T00950051  RH  074%=      5-min Rain = 0
KWE3 162310Z 35025G30KT 10/05 A3002 RMK A01 T00950048  RH  073%=      5-min Rain = 0
KWE3 162311Z 35025G30KT 09/05 A3002 RMK A01 T00940046  RH  072%=      5-min Rain = 0
KWE3 162312Z 35023G28KT 09/05 A3002 RMK A01 T00930047  RH  073%=      5-min Rain = 0
KWE3 162313Z 35022KT 09/05 A3002 RMK A01 T00920046  RH  073%=      5-min Rain = 0
KWE3 162314Z 35022G27KT 09/05 A3002 RMK A01 T00920047  RH  073%=      5-min Rain = 0
KWE3 162315Z 35021G26KT 09/05 A3002 RMK A01 T00920046  RH  073%=      5-min Rain = 0
KWE3 162316Z 35020G26KT 09/05 A3002 RMK A01 T00920048  RH  074%=      5-min Rain = 0
KWE3 162317Z 35022G27KT 09/05 A3002 RMK A01 T00920046  RH  073%=      5-min Rain = 0
KWE3 162318Z 36018KT 09/05 A3002 RMK A01 T00920048  RH  074%=      5-min Rain = 0
KWE3 162319Z 36019G24KT 09/05 A3002 RMK A01 T00920049  RH  075%=      5-min Rain = 0
KWE3 162320Z 36019G25KT 09/05 A3002 RMK A01 T00920048  RH  074%=      5-min Rain = 0
KWE3 162321Z 36021KT 09/05 A3002 RMK A01 T00910047  RH  074%=      5-min Rain = 0
KWE3 162322Z 36020G26KT 09/05 A3002 RMK A01 T00910046  RH  074%=      5-min Rain = 0
KWE3 162323Z 35022G27KT 09/05 A3002 RMK A01 T00910045  RH  073%=      5-min Rain = 0
KWE3 162324Z 35022G27KT 09/04 A3002 RMK A01 T00910044  RH  073%=      5-min Rain = 0
KWE3 162325Z 35021G27KT 09/05 A3003 RMK A01 T00910045  RH  073%=      5-min Rain = 0
KWE3 162326Z 35021G28KT 09/05 A3003 RMK A01 T00910045  RH  073%=      5-min Rain = 0
KWE3 162327Z 35021G26KT 09/04 A3003 RMK A01 T00910044  RH  073%=      5-min Rain = 0
KWE3 162328Z 35020G26KT 09/05 A3003 RMK A01 T00910045  RH  073%=      5-min Rain = 0
KWE3 162329Z 36022KT 09/04 A3003 RMK A01 T00900044  RH  073%=      5-min Rain = 0
KWE3 162330Z 36019KT 09/05 A3003 RMK A01 T00900046  RH  074%=      5-min Rain = 0
KWE3 162331Z 35021KT 09/05 A3003 RMK A01 T00900047  RH  074%=      5-min Rain = 0
KWE3 162332Z 35019G24KT 09/05 A3003 RMK A01 T00900045  RH  074%=      5-min Rain = 0
KWE3 162333Z 35018KT 09/05 A3003 RMK A01 T00900046  RH  074%=      5-min Rain = 0
KWE3 162334Z 35015G22KT 09/05 A3003 RMK A01 T00900048  RH  075%=      5-min Rain = 0
KWE3 162335Z 00018G23KT 09/05 A3003 RMK A01 T00900050  RH  076%=      5-min Rain = 0
KWE3 162336Z 00021G26KT 09/05 A3003 RMK A01 T00900047  RH  075%=      5-min Rain = 0
KWE3 162337Z 00021KT 09/05 A3003 RMK A01 T00890045  RH  074%=      5-min Rain = 0
KWE3 162338Z 36021G26KT 09/04 A3003 RMK A01 T00880044  RH  074%=      5-min Rain = 0
KWE3 162339Z 35018KT 09/04 A3003 RMK A01 T00880044  RH  074%=      5-min Rain = 0
KWE3 162340Z 35022G28KT 09/05 A3003 RMK A01 T00880045  RH  074%=      5-min Rain = 0
KWE3 162341Z 35021KT 09/04 A3003 RMK A01 T00880044  RH  074%=      5-min Rain = 0
KWE3 162342Z 35020G27KT 09/04 A3003 RMK A01 T00870044  RH  074%=      5-min Rain = 0
KWE3 162343Z 36017G22KT 09/04 A3003 RMK A01 T00870044  RH  074%=      5-min Rain = 0
KWE3 162344Z 00019G25KT 09/05 A3003 RMK A01 T00870045  RH  075%=      5-min Rain = 0
KWE3 162345Z 00019G24KT 09/04 A3003 RMK A01 T00870044  RH  074%=      5-min Rain = 0
KWE3 162346Z 36020KT 09/04 A3003 RMK A01 T00870044  RH  074%=      5-min Rain = 0
KWE3 162347Z 35020G25KT 09/04 A3003 RMK A01 T00870044  RH  074%=      5-min Rain = 0
KWE3 162348Z 35021G26KT 09/04 A3003 RMK A01 T00870043  RH  074%=      5-min Rain = 0
KWE3 162349Z 36022KT 09/04 A3004 RMK A01 T00870042  RH  073%=      5-min Rain = 0
KWE3 162350Z 36022G28KT 09/04 A3004 RMK A01 T00870041  RH  073%=      5-min Rain = 0
KWE3 162351Z 36024KT 09/04 A3004 RMK A01 T00870040  RH  073%=      5-min Rain = 0
KWE3 162352Z 36023KT 09/04 A3004 RMK A01 T00860039  RH  072%=      5-min Rain = 0
KWE3 162353Z 36019G24KT 09/04 A3004 RMK A01 T00860040  RH  073%=      5-min Rain = 0
KWE3 162354Z 36022G27KT 09/04 A3004 RMK A01 T00860041  RH  074%=      5-min Rain = 0
KWE3 162355Z 36020G25KT 09/04 A3004 RMK A01 T00850040  RH  073%=      5-min Rain = 0
KWE3 162356Z 36020KT 09/04 A3004 RMK A01 T00850041  RH  074%=      5-min Rain = 0
KWE3 162357Z 00020KT 09/04 A3005 RMK A01 T00850041  RH  074%=      5-min Rain = 0
KWE3 162358Z 36020G26KT 09/04 A3005 RMK A01 T00850041  RH  074%=      5-min Rain = 0
KWE3 162359Z 36019G24KT 09/04 A3005 RMK A01 T00850041  RH  074%=      5-min Rain = 0
KWE3 170000Z 36021G26KT 09/04 A3005 RMK A01 T00850040  RH  074%=      5-min Rain = 0
KWE3 170001Z 00019KT 08/04 A3005 RMK A01 T00840041  RH  074%=      5-min Rain = 0
KWE3 170002Z 00018KT 08/04 A3005 RMK A01 T00840041  RH  075%=      5-min Rain = 0
KWE3 170003Z 01019KT 08/04 A3005 RMK A01 T00840043  RH  075%=      5-min Rain = 0
KWE3 170004Z 00017KT 08/04 A3005 RMK A01 T00830043  RH  076%=      5-min Rain = 0
KWE3 170005Z 01017KT 08/04 A3005 RMK A01 T00830043  RH  076%=      5-min Rain = 0
KWE3 170006Z 00015G21KT 08/04 A3005 RMK A01 T00830043  RH  076%=      5-min Rain = 0
KWE3 170007Z 01020G25KT 08/04 A3005 RMK A01 T00830043  RH  076%=      5-min Rain = 0
KWE3 170008Z 00020G25KT 08/04 A3005 RMK A01 T00830041  RH  075%=      5-min Rain = 0
KWE3 170009Z 36018G23KT 08/04 A3005 RMK A01 T00830040  RH  074%=      5-min Rain = 0
KWE3 170010Z 35019G24KT 08/04 A3005 RMK A01 T00840041  RH  075%=      5-min Rain = 0
KWE3 170011Z 36017G24KT 08/04 A3005 RMK A01 T00840040  RH  074%=      5-min Rain = 0
KWE3 170012Z 36022KT 08/04 A3005 RMK A01 T00840041  RH  074%=      5-min Rain = 0
KWE3 170013Z 35021G26KT 08/04 A3005 RMK A01 T00840040  RH  074%=      5-min Rain = 0
KWE3 170014Z 36018G23KT 08/04 A3005 RMK A01 T00830040  RH  074%=      5-min Rain = 0
KWE3 170015Z 00019G25KT 08/04 A3005 RMK A01 T00830043  RH  076%=      5-min Rain = 0
KWE3 170016Z 00022G27KT 08/04 A3005 RMK A01 T00820040  RH  075%=      5-min Rain = 0
KWE3 170017Z 00021G27KT 08/04 A3005 RMK A01 T00810040  RH  075%=      5-min Rain = 0
KWE3 170018Z 00019KT 08/04 A3005 RMK A01 T00810042  RH  076%=      5-min Rain = 0
KWE3 170019Z 00021G26KT 08/04 A3006 RMK A01 T00810042  RH  076%=      5-min Rain = 0
KWE3 170020Z 01022KT 08/04 A3006 RMK A01 T00800040  RH  076%=      5-min Rain = 0
KWE3 170021Z 01022G27KT 08/04 A3006 RMK A01 T00800040  RH  076%=      5-min Rain = 0
KWE3 170022Z 01022G29KT 08/04 A3006 RMK A01 T00800040  RH  076%=      5-min Rain = 0
KWE3 170023Z 00023G28KT 08/04 A3006 RMK A01 T00790041  RH  076%=      5-min Rain = 0
KWE3 170024Z 00022G28KT 08/04 A3006 RMK A01 T00790039  RH  076%=      5-min Rain = 0
KWE3 170025Z 00018G26KT 08/04 A3006 RMK A01 T00790039  RH  076%=      5-min Rain = 0
KWE3 170026Z 00019KT 08/04 A3006 RMK A01 T00790042  RH  078%=      5-min Rain = 0
KWE3 170027Z 01021KT 08/04 A3006 RMK A01 T00790041  RH  077%=      5-min Rain = 0
KWE3 170028Z 00021G26KT 08/04 A3006 RMK A01 T00790040  RH  077%=      5-min Rain = 0
KWE3 170029Z 00022G28KT 08/04 A3006 RMK A01 T00780039  RH  076%=      5-min Rain = 0
KWE3 170030Z 00022G27KT 08/04 A3006 RMK A01 T00780039  RH  076%=      5-min Rain = 0
KWE3 170031Z 36019G25KT 08/04 A3006 RMK A01 T00780039  RH  076%=      5-min Rain = 0
KWE3 170032Z 00018G23KT 08/04 A3006 RMK A01 T00780040  RH  077%=      5-min Rain = 0
KWE3 170033Z 36019G24KT 08/04 A3006 RMK A01 T00780041  RH  077%=      5-min Rain = 0
KWE3 170034Z 36022G27KT 08/04 A3006 RMK A01 T00780040  RH  077%=      5-min Rain = 0
KWE3 170035Z 36022G28KT 08/04 A3006 RMK A01 T00780038  RH  076%=      5-min Rain = 0
KWE3 170036Z 36024G29KT 08/04 A3006 RMK A01 T00770036  RH  075%=      5-min Rain = 0
KWE3 170037Z 36022G27KT 08/04 A3006 RMK A01 T00770036  RH  075%=      5-min Rain = 0
KWE3 170038Z 36021G26KT 08/04 A3006 RMK A01 T00770037  RH  076%=      5-min Rain = 0
KWE3 170039Z 36022G28KT 08/04 A3006 RMK A01 T00770038  RH  076%=      5-min Rain = 0
KWE3 170040Z 00022KT 08/04 A3006 RMK A01 T00770037  RH  076%=      5-min Rain = 0
KWE3 170041Z 35021G28KT 08/04 A3006 RMK A01 T00770037  RH  076%=      5-min Rain = 0
KWE3 170042Z 35022G28KT 08/04 A3006 RMK A01 T00760035  RH  075%=      5-min Rain = 0
KWE3 170043Z 01022G28KT 08/04 A3007 RMK A01 T00760035  RH  075%=      5-min Rain = 0
KWE3 170044Z 00021KT 08/04 A3007 RMK A01 T00760035  RH  075%=      5-min Rain = 0
KWE3 170045Z 01019KT 08/04 A3007 RMK A01 T00760036  RH  076%=      5-min Rain = 0
KWE3 170046Z 00019KT 08/04 A3007 RMK A01 T00760037  RH  076%=      5-min Rain = 0
KWE3 170047Z 00018G24KT 08/04 A3007 RMK A01 T00760036  RH  076%=      5-min Rain = 0
KWE3 170048Z 00020KT 08/04 A3007 RMK A01 T00760036  RH  076%=      5-min Rain = 0
KWE3 170049Z 01019G25KT 08/04 A3007 RMK A01 T00760036  RH  076%=      5-min Rain = 0
KWE3 170050Z 01021G27KT 08/04 A3007 RMK A01 T00760036  RH  076%=      5-min Rain = 0
KWE3 170051Z 01021KT 08/04 A3007 RMK A01 T00760035  RH  075%=      5-min Rain = 0
KWE3 170052Z 01019KT 08/04 A3007 RMK A01 T00760036  RH  076%=      5-min Rain = 0
KWE3 170053Z 01018KT 08/04 A3007 RMK A01 T00760037  RH  076%=      5-min Rain = 0
KWE3 170054Z 00019G24KT 08/04 A3007 RMK A01 T00760037  RH  077%=      5-min Rain = 0
KWE3 170055Z 00017KT 08/04 A3007 RMK A01 T00760037  RH  076%=      5-min Rain = 0
KWE3 170056Z 00015KT 08/04 A3007 RMK A01 T00760037  RH  076%=      5-min Rain = 0
KWE3 170057Z 00015G22KT 08/04 A3007 RMK A01 T00760039  RH  077%=      5-min Rain = 0
KWE3 170058Z 00017KT 08/04 A3007 RMK A01 T00760037  RH  076%=      5-min Rain = 0
KWE3 170059Z 36016KT 08/04 A3007 RMK A01 T00760038  RH  077%=      5-min Rain = 0
KWE3 170100Z 01014KT 08/04 A3008 RMK A01 T00760038  RH  077%=      5-min Rain = 0
KWE3 170101Z 01013KT 08/04 A3008 RMK A01 T00760039  RH  077%=      5-min Rain = 0
KWE3 170102Z 01016G21KT 08/04 A3008 RMK A01 T00760040  RH  078%=      5-min Rain = 0
KWE3 170103Z 01017KT 08/04 A3008 RMK A01 T00750037  RH  077%=      5-min Rain = 0
KWE3 170104Z 00017G22KT 08/04 A3008 RMK A01 T00750038  RH  077%=      5-min Rain = 0
KWE3 170105Z 00015G21KT 08/04 A3008 RMK A01 T00750039  RH  078%=      5-min Rain = 0
KWE3 170106Z 00016KT 08/04 A3008 RMK A01 T00750038  RH  077%=      5-min Rain = 0
KWE3 170107Z 00016G21KT 08/04 A3008 RMK A01 T00750037  RH  077%=      5-min Rain = 0
KWE3 170108Z 36019KT 08/04 A3008 RMK A01 T00750037  RH  077%=      5-min Rain = 0
KWE3 170109Z 00016KT 08/04 A3008 RMK A01 T00750037  RH  077%=      5-min Rain = 0
KWE3 170110Z 00015KT 08/04 A3008 RMK A01 T00750038  RH  077%=      5-min Rain = 0
KWE3 170111Z 00016KT 08/04 A3008 RMK A01 T00750037  RH  077%=      5-min Rain = 0
KWE3 170112Z 00016KT 08/04 A3008 RMK A01 T00750037  RH  077%=      5-min Rain = 0
KWE3 170113Z 36016KT 08/04 A3008 RMK A01 T00750038  RH  077%=      5-min Rain = 0
KWE3 170114Z 36015KT 08/04 A3008 RMK A01 T00750038  RH  077%=      5-min Rain = 0
KWE3 170115Z 00014KT 08/04 A3008 RMK A01 T00750038  RH  078%=      5-min Rain = 0
KWE3 170116Z 00013KT 08/04 A3008 RMK A01 T00750039  RH  078%=      5-min Rain = 0
KWE3 170117Z 00014G20KT 07/04 A3008 RMK A01 T00740040  RH  079%=      5-min Rain = 0
KWE3 170118Z 00016KT 07/04 A3008 RMK A01 T00740037  RH  077%=      5-min Rain = 0
KWE3 170119Z 00016G21KT 08/04 A3008 RMK A01 T00750037  RH  077%=      5-min Rain = 0
KWE3 170120Z 01018KT 08/04 A3009 RMK A01 T00750036  RH  076%=      5-min Rain = 0
KWE3 170121Z 00015KT 08/04 A3009 RMK A01 T00750037  RH  076%=      5-min Rain = 0
KWE3 170122Z 36015G20KT 08/04 A3008 RMK A01 T00750037  RH  077%=      5-min Rain = 0
KWE3 170123Z 36017KT 08/04 A3008 RMK A01 T00760035  RH  075%=      5-min Rain = 0
KWE3 170124Z 00015G21KT 08/04 A3009 RMK A01 T00760035  RH  076%=      5-min Rain = 0
KWE3 170125Z 00014KT 08/04 A3009 RMK A01 T00760037  RH  077%=      5-min Rain = 0
KWE3 170126Z 00016KT 08/04 A3009 RMK A01 T00760037  RH  076%=      5-min Rain = 0
KWE3 170127Z 00016G24KT 08/04 A3009 RMK A01 T00760036  RH  076%=      5-min Rain = 0
KWE3 170128Z 01019KT 08/04 A3009 RMK A01 T00760035  RH  075%=      5-min Rain = 0
KWE3 170129Z 01017KT 08/03 A3009 RMK A01 T00760034  RH  074%=      5-min Rain = 0
KWE3 170130Z 00017KT 08/04 A3009 RMK A01 T00760035  RH  075%=      5-min Rain = 0
KWE3 170131Z 00014KT 08/04 A3009 RMK A01 T00760035  RH  075%=      5-min Rain = 0
KWE3 170132Z 00013KT 08/04 A3009 RMK A01 T00760037  RH  076%=      5-min Rain = 0
KWE3 170133Z 36015KT 08/04 A3009 RMK A01 T00760036  RH  076%=      5-min Rain = 0
KWE3 170134Z 00017KT 08/03 A3009 RMK A01 T00760033  RH  074%=      5-min Rain = 0
KWE3 170135Z 00017KT 08/03 A3009 RMK A01 T00770032  RH  073%=      5-min Rain = 0
KWE3 170136Z 01017KT 08/03 A3009 RMK A01 T00770033  RH  074%=      5-min Rain = 0
KWE3 170137Z 00014KT 08/03 A3009 RMK A01 T00770033  RH  074%=      5-min Rain = 0
KWE3 170138Z 01014KT 08/03 A3009 RMK A01 T00770034  RH  075%=      5-min Rain = 0
KWE3 170139Z 01017KT 08/03 A3009 RMK A01 T00770033  RH  074%=      5-min Rain = 0
KWE3 170140Z 01015KT 08/03 A3009 RMK A01 T00770033  RH  074%=      5-min Rain = 0
KWE3 170141Z 01015KT 08/03 A3009 RMK A01 T00770034  RH  074%=      5-min Rain = 0
KWE3 170142Z 01016KT 08/03 A3009 RMK A01 T00770033  RH  074%=      5-min Rain = 0
KWE3 170143Z 36018KT 08/03 A3009 RMK A01 T00770032  RH  073%=      5-min Rain = 0
KWE3 170144Z 01017KT 08/03 A3009 RMK A01 T00770030  RH  072%=      5-min Rain = 0
KWE3 170145Z 00018KT 08/03 A3009 RMK A01 T00770032  RH  073%=      5-min Rain = 0
KWE3 170146Z 01017KT 08/03 A3009 RMK A01 T00770032  RH  073%=      5-min Rain = 0
KWE3 170147Z 01018KT 08/03 A3009 RMK A01 T00770031  RH  072%=      5-min Rain = 0
KWE3 170148Z 00017KT 08/03 A3009 RMK A01 T00770031  RH  073%=      5-min Rain = 0
KWE3 170149Z 01015KT 08/03 A301 RMK A01 T00770032  RH  073%=      5-min Rain = 0
KWE3 170150Z 00017KT 08/03 A301 RMK A01 T00770033  RH  073%=      5-min Rain = 0
KWE3 170151Z 01017KT 08/03 A301 RMK A01 T00770032  RH  073%=      5-min Rain = 0
KWE3 170152Z 01017KT 08/03 A301 RMK A01 T00770031  RH  072%=      5-min Rain = 0
KWE3 170153Z 00016KT 08/03 A301 RMK A01 T00770031  RH  073%=      5-min Rain = 0
KWE3 170154Z 01016KT 08/03 A301 RMK A01 T00770033  RH  074%=      5-min Rain = 0
KWE3 170155Z 01015G20KT 08/03 A301 RMK A01 T00770033  RH  073%=      5-min Rain = 0
KWE3 170156Z 01017KT 08/03 A301 RMK A01 T00770033  RH  074%=      5-min Rain = 0
KWE3 170157Z 01019G25KT 08/03 A301 RMK A01 T00770032  RH  073%=      5-min Rain = 0
KWE3 170158Z 00018KT 08/03 A301 RMK A01 T00770030  RH  072%=      5-min Rain = 0
KWE3 170159Z 00018KT 08/03 A301 RMK A01 T00770031  RH  073%=      5-min Rain = 0
KWE3 170200Z 01017KT 08/03 A301 RMK A01 T00770032  RH  073%=      5-min Rain = 0
KWE3 170201Z 01019KT 08/03 A301 RMK A01 T00770031  RH  073%=      5-min Rain = 0
KWE3 170202Z 01018KT 08/03 A301 RMK A01 T00770030  RH  072%=      5-min Rain = 0
KWE3 170203Z 00017KT 08/03 A301 RMK A01 T00770030  RH  072%=      5-min Rain = 0
KWE3 170204Z 01019KT 08/03 A301 RMK A01 T00770030  RH  072%=      5-min Rain = 0
KWE3 170205Z 00017KT 08/03 A301 RMK A01 T00770030  RH  072%=      5-min Rain = 0
KWE3 170206Z 36018KT 08/03 A301 RMK A01 T00770030  RH  072%=      5-min Rain = 0
KWE3 170207Z 00015KT 08/03 A301 RMK A01 T00770030  RH  072%=      5-min Rain = 0
KWE3 170208Z 00017KT 08/03 A301 RMK A01 T00770031  RH  072%=      5-min Rain = 0
KWE3 170209Z 36019G26KT 08/03 A301 RMK A01 T00770029  RH  072%=      5-min Rain = 0
KWE3 170210Z 36019G24KT 08/03 A301 RMK A01 T00780026  RH  070%=      5-min Rain = 0
KWE3 170211Z 00016KT 08/03 A3011 RMK A01 T00780027  RH  070%=      5-min Rain = 0
KWE3 170212Z 00016KT 08/03 A3011 RMK A01 T00780029  RH  071%=      5-min Rain = 0
KWE3 170213Z 00018KT 08/03 A3011 RMK A01 T00780028  RH  071%=      5-min Rain = 0
KWE3 170214Z 00014G20KT 08/03 A3011 RMK A01 T00780029  RH  071%=      5-min Rain = 0
KWE3 170215Z 00017KT 08/03 A3011 RMK A01 T00780030  RH  072%=      5-min Rain = 0
KWE3 170216Z 00015KT 08/03 A3011 RMK A01 T00770028  RH  071%=      5-min Rain = 0
KWE3 170217Z 01015KT 08/03 A3011 RMK A01 T00770029  RH  071%=      5-min Rain = 0
KWE3 170218Z 01014KT 08/03 A3011 RMK A01 T00770029  RH  072%=      5-min Rain = 0
KWE3 170219Z 01016KT 08/03 A3011 RMK A01 T00770030  RH  072%=      5-min Rain = 0
KWE3 170220Z 01015G20KT 08/03 A3011 RMK A01 T00760027  RH  071%=      5-min Rain = 0
KWE3 170221Z 01016G21KT 08/03 A3011 RMK A01 T00760027  RH  071%=      5-min Rain = 0
KWE3 170222Z 01019G24KT 08/02 A3011 RMK A01 T00750023  RH  069%=      5-min Rain = 0
KWE3 170223Z 01017KT 08/02 A3011 RMK A01 T00750020  RH  068%=      5-min Rain = 0
KWE3 170224Z 01017G23KT 08/02 A3011 RMK A01 T00750020  RH  068%=      5-min Rain = 0
KWE3 170225Z 01017KT 08/02 A3011 RMK A01 T00750020  RH  068%=      5-min Rain = 0
KWE3 170226Z 01014KT 08/02 A3011 RMK A01 T00750021  RH  069%=      5-min Rain = 0
KWE3 170227Z 01013KT 07/02 A3011 RMK A01 T00740023  RH  070%=      5-min Rain = 0
KWE3 170228Z 02015KT 07/02 A3011 RMK A01 T00730023  RH  070%=      5-min Rain = 0
KWE3 170229Z 01015KT 07/02 A3012 RMK A01 T00730020  RH  069%=      5-min Rain = 0
KWE3 170230Z 01016KT 07/02 A3012 RMK A01 T00730021  RH  070%=      5-min Rain = 0
KWE3 170231Z 01015KT 07/02 A3012 RMK A01 T00730021  RH  070%=      5-min Rain = 0
KWE3 170232Z 01014KT 07/02 A3012 RMK A01 T00730022  RH  070%=      5-min Rain = 0
KWE3 170233Z 01018KT 07/02 A3011 RMK A01 T00720022  RH  070%=      5-min Rain = 0
KWE3 170234Z 01017KT 07/02 A3011 RMK A01 T00720021  RH  070%=      5-min Rain = 0
KWE3 170235Z 01014KT 07/02 A3011 RMK A01 T00720022  RH  070%=      5-min Rain = 0
KWE3 170236Z 01017KT 07/02 A3011 RMK A01 T00720023  RH  071%=      5-min Rain = 0
KWE3 170237Z 01017KT 07/02 A3011 RMK A01 T00710021  RH  070%=      5-min Rain = 0
KWE3 170238Z 01015KT 07/02 A3011 RMK A01 T00710022  RH  071%=      5-min Rain = 0
KWE3 170239Z 01014KT 07/02 A3011 RMK A01 T00710023  RH  071%=      5-min Rain = 0
KWE3 170240Z 01015G21KT 07/02 A3011 RMK A01 T00700024  RH  072%=      5-min Rain = 0
KWE3 170241Z 01016KT 07/02 A3011 RMK A01 T00690022  RH  072%=      5-min Rain = 0
KWE3 170242Z 01017KT 07/02 A3011 RMK A01 T00700021  RH  071%=      5-min Rain = 0
KWE3 170243Z 01016KT 07/02 A3011 RMK A01 T00700021  RH  071%=      5-min Rain = 0
KWE3 170244Z 01014KT 07/02 A3011 RMK A01 T00700023  RH  072%=      5-min Rain = 0
KWE3 170245Z 01014G19KT 07/02 A3011 RMK A01 T00700024  RH  072%=      5-min Rain = 0
KWE3 170246Z 01016KT 07/02 A3011 RMK A01 T00690022  RH  072%=      5-min Rain = 0
KWE3 170247Z 01015KT 07/02 A3011 RMK A01 T00700021  RH  071%=      5-min Rain = 0
KWE3 170248Z 01014KT 07/02 A3012 RMK A01 T00700023  RH  072%=      5-min Rain = 0
KWE3 170249Z 01013KT 07/02 A3012 RMK A01 T00700023  RH  072%=      5-min Rain = 0
KWE3 170250Z 01012KT 07/02 A3012 RMK A01 T00690024  RH  073%=      5-min Rain = 0
KWE3 170251Z 01012KT 07/03 A3012 RMK A01 T00690025  RH  073%=      5-min Rain = 0
KWE3 170252Z 01011KT 07/03 A3012 RMK A01 T00690025  RH  074%=      5-min Rain = 0
KWE3 170253Z 01013KT 07/03 A3012 RMK A01 T00680025  RH  074%=      5-min Rain = 0
KWE3 170254Z 01012KT 07/03 A3012 RMK A01 T00680025  RH  074%=      5-min Rain = 0
KWE3 170255Z 01013KT 07/03 A3012 RMK A01 T00680025  RH  074%=      5-min Rain = 0
KWE3 170256Z 01012KT 07/02 A3012 RMK A01 T00680024  RH  074%=      5-min Rain = 0
KWE3 170257Z 01011KT 07/02 A3012 RMK A01 T00680024  RH  074%=      5-min Rain = 0
KWE3 170258Z 01013KT 07/03 A3012 RMK A01 T00680025  RH  074%=      5-min Rain = 0
KWE3 170259Z 01012KT 07/03 A3012 RMK A01 T00680025  RH  074%=      5-min Rain = 0
KWE3 170300Z 01011KT 07/03 A3012 RMK A01 T00680025  RH  074%=      5-min Rain = 0
KWE3 170301Z 01011KT 07/03 A3012 RMK A01 T00680026  RH  075%=      5-min Rain = 0
KWE3 170302Z 01013KT 07/03 A3012 RMK A01 T00670025  RH  074%=      5-min Rain = 0
KWE3 170303Z 01011KT 07/02 A3012 RMK A01 T00670023  RH  073%=      5-min Rain = 0
KWE3 170304Z 01011KT 07/02 A3012 RMK A01 T00680024  RH  074%=      5-min Rain = 0
KWE3 170305Z 02011KT 07/03 A3012 RMK A01 T00680025  RH  074%=      5-min Rain = 0
KWE3 170306Z 01011KT 07/03 A3012 RMK A01 T00670025  RH  075%=      5-min Rain = 0
KWE3 170307Z 01012KT 07/03 A3012 RMK A01 T00670026  RH  075%=      5-min Rain = 0
KWE3 170308Z 01011KT 07/02 A3012 RMK A01 T00670024  RH  074%=      5-min Rain = 0
KWE3 170309Z 02010KT 07/03 A3012 RMK A01 T00670025  RH  075%=      5-min Rain = 0
KWE3 170310Z 02012KT 07/03 A3013 RMK A01 T00660025  RH  075%=      5-min Rain = 0
KWE3 170311Z 01012KT 07/02 A3013 RMK A01 T00660024  RH  074%=      5-min Rain = 0
KWE3 170312Z 02012KT 07/02 A3013 RMK A01 T00660023  RH  074%=      5-min Rain = 0
KWE3 170313Z 01011KT 07/02 A3013 RMK A01 T00660023  RH  074%=      5-min Rain = 0
KWE3 170314Z 02011KT 07/02 A3013 RMK A01 T00660024  RH  074%=      5-min Rain = 0
KWE3 170315Z 02010KT 07/03 A3013 RMK A01 T00660025  RH  075%=      5-min Rain = 0
KWE3 170316Z 02011KT 07/02 A3013 RMK A01 T00660024  RH  075%=      5-min Rain = 0
KWE3 170317Z 02010KT 07/02 A3013 RMK A01 T00660024  RH  075%=      5-min Rain = 0
KWE3 170318Z 02009KT 07/03 A3013 RMK A01 T00660026  RH  075%=      5-min Rain = 0
KWE3 170319Z 02009KT 07/03 A3013 RMK A01 T00650025  RH  076%=      5-min Rain = 0
KWE3 170320Z 02008KT 07/03 A3013 RMK A01 T00650026  RH  076%=      5-min Rain = 0
KWE3 170321Z 02008KT 06/03 A3013 RMK A01 T00640026  RH  077%=      5-min Rain = 0
KWE3 170322Z 02008KT 06/03 A3013 RMK A01 T00640027  RH  077%=      5-min Rain = 0
KWE3 170323Z 02008KT 06/03 A3013 RMK A01 T00630027  RH  077%=      5-min Rain = 0
KWE3 170324Z 02009KT 06/03 A3013 RMK A01 T00630027  RH  078%=      5-min Rain = 0
KWE3 170325Z 02008KT 06/03 A3013 RMK A01 T00630026  RH  077%=      5-min Rain = 0
KWE3 170326Z 02008KT 06/03 A3013 RMK A01 T00630026  RH  077%=      5-min Rain = 0
KWE3 170327Z 02008KT 06/03 A3013 RMK A01 T00620028  RH  078%=      5-min Rain = 0
KWE3 170328Z 02008KT 06/03 A3013 RMK A01 T00620027  RH  078%=      5-min Rain = 0
KWE3 170329Z 02008KT 06/03 A3013 RMK A01 T00620026  RH  078%=      5-min Rain = 0
KWE3 170330Z 02009KT 06/03 A3013 RMK A01 T00620026  RH  078%=      5-min Rain = 0
KWE3 170331Z 01009KT 06/03 A3013 RMK A01 T00620026  RH  078%=      5-min Rain = 0
KWE3 170332Z 01009KT 06/03 A3013 RMK A01 T00620025  RH  077%=      5-min Rain = 0
KWE3 170333Z 01008KT 06/03 A3013 RMK A01 T00620026  RH  078%=      5-min Rain = 0
KWE3 170334Z 01009KT 06/03 A3014 RMK A01 T00620026  RH  078%=      5-min Rain = 0
KWE3 170335Z 01007KT 06/03 A3014 RMK A01 T00610025  RH  078%=      5-min Rain = 0
KWE3 170336Z 00007KT 06/03 A3014 RMK A01 T00610027  RH  078%=      5-min Rain = 0
KWE3 170337Z 00007KT 06/03 A3014 RMK A01 T00610027  RH  079%=      5-min Rain = 0
KWE3 170338Z 01007KT 06/03 A3014 RMK A01 T00600027  RH  079%=      5-min Rain = 0
KWE3 170339Z 36006KT 06/03 A3014 RMK A01 T00600028  RH  080%=      5-min Rain = 0
KWE3 170340Z 00007KT 06/03 A3014 RMK A01 T00600028  RH  080%=      5-min Rain = 0
KWE3 170341Z 00007KT 06/03 A3014 RMK A01 T00590028  RH  080%=      5-min Rain = 0
KWE3 170342Z 36007KT 06/03 A3014 RMK A01 T00590028  RH  080%=      5-min Rain = 0
KWE3 170343Z 36006KT 06/03 A3014 RMK A01 T00590028  RH  080%=      5-min Rain = 0
KWE3 170344Z 35006KT 06/03 A3015 RMK A01 T00590028  RH  080%=      5-min Rain = 0
KWE3 170345Z 35006KT 06/03 A3015 RMK A01 T00590028  RH  080%=      5-min Rain = 0
KWE3 170346Z 35005KT 06/03 A3015 RMK A01 T00590028  RH  081%=      5-min Rain = 0
KWE3 170347Z 35005KT 06/03 A3015 RMK A01 T00590029  RH  081%=      5-min Rain = 0
KWE3 170348Z 35006KT 06/03 A3015 RMK A01 T00580029  RH  082%=      5-min Rain = 0
KWE3 170349Z 34006KT 06/03 A3015 RMK A01 T00580029  RH  081%=      5-min Rain = 0
KWE3 170350Z 34005KT 06/03 A3015 RMK A01 T00580028  RH  081%=      5-min Rain = 0
KWE3 170351Z 34005KT 06/03 A3015 RMK A01 T00580028  RH  081%=      5-min Rain = 0
KWE3 170352Z 33006KT 06/03 A3015 RMK A01 T00590027  RH  080%=      5-min Rain = 0
KWE3 170353Z 33005KT 06/03 A3015 RMK A01 T00590029  RH  081%=      5-min Rain = 0
KWE3 170354Z 32004KT 06/03 A3015 RMK A01 T00590030  RH  082%=      5-min Rain = 0
KWE3 170355Z 32004KT 06/03 A3015 RMK A01 T00580029  RH  082%=      5-min Rain = 0
KWE3 170356Z 32004KT 06/03 A3015 RMK A01 T00570029  RH  082%=      5-min Rain = 0
KWE3 170357Z 32004KT 06/03 A3015 RMK A01 T00560028  RH  082%=      5-min Rain = 0
KWE3 170358Z 32004KT 06/03 A3015 RMK A01 T00560028  RH  082%=      5-min Rain = 0
KWE3 170359Z 32004KT 06/03 A3015 RMK A01 T00560027  RH  082%=      5-min Rain = 0
KWE3 170400Z 31004KT 06/03 A3015 RMK A01 T00550028  RH  082%=      5-min Rain = 0
KWE3 170401Z 31004KT 06/03 A3015 RMK A01 T00550028  RH  083%=      5-min Rain = 0
KWE3 170402Z 30004KT 06/03 A3015 RMK A01 T00550028  RH  083%=      5-min Rain = 0
KWE3 170403Z 30004KT 06/03 A3016 RMK A01 T00550029  RH  083%=      5-min Rain = 0
KWE3 170404Z 31004KT 05/03 A3016 RMK A01 T00540029  RH  084%=      5-min Rain = 0
KWE3 170405Z 31004KT 05/03 A3016 RMK A01 T00540029  RH  084%=      5-min Rain = 0
KWE3 170406Z 31005KT 05/03 A3016 RMK A01 T00530029  RH  085%=      5-min Rain = 0
KWE3 170407Z 31005KT 05/03 A3016 RMK A01 T00530030  RH  085%=      5-min Rain = 0
KWE3 170408Z 32005KT 05/03 A3016 RMK A01 T00530030  RH  085%=      5-min Rain = 0
KWE3 170409Z 32006KT 05/03 A3015 RMK A01 T00520030  RH  086%=      5-min Rain = 0
KWE3 170410Z 32006KT 05/03 A3015 RMK A01 T00520030  RH  086%=      5-min Rain = 0
KWE3 170411Z 32006KT 05/03 A3015 RMK A01 T00520030  RH  085%=      5-min Rain = 0
KWE3 170412Z 33007KT 05/03 A3015 RMK A01 T00520030  RH  085%=      5-min Rain = 0
KWE3 170413Z 33007KT 05/03 A3015 RMK A01 T00530029  RH  085%=      5-min Rain = 0
KWE3 170414Z 33007KT 05/03 A3015 RMK A01 T00530029  RH  084%=      5-min Rain = 0
KWE3 170415Z 33008KT 05/03 A3015 RMK A01 T00540029  RH  084%=      5-min Rain = 0
KWE3 170416Z 33008KT 05/03 A3015 RMK A01 T00540029  RH  084%=      5-min Rain = 0
KWE3 170417Z 33008KT 06/03 A3015 RMK A01 T00550029  RH  084%=      5-min Rain = 0
KWE3 170418Z 33007KT 06/03 A3015 RMK A01 T00550029  RH  084%=      5-min Rain = 0
KWE3 170419Z 33007KT 06/03 A3015 RMK A01 T00550030  RH  084%=      5-min Rain = 0
KWE3 170420Z 33008KT 06/03 A3015 RMK A01 T00550030  RH  084%=      5-min Rain = 0
KWE3 170421Z 32008KT 06/03 A3015 RMK A01 T00550030  RH  084%=      5-min Rain = 0
KWE3 170422Z 32007KT 06/03 A3015 RMK A01 T00550030  RH  084%=      5-min Rain = 0
KWE3 170423Z 32007KT 06/03 A3015 RMK A01 T00550031  RH  084%=      5-min Rain = 0
KWE3 170424Z 32007KT 06/03 A3015 RMK A01 T00550031  RH  084%=      5-min Rain = 0
KWE3 170425Z 32007KT 06/03 A3015 RMK A01 T00550031  RH  084%=      5-min Rain = 0
KWE3 170426Z 32007KT 05/03 A3015 RMK A01 T00540031  RH  085%=      5-min Rain = 0
KWE3 170427Z 32007KT 05/03 A3015 RMK A01 T00540031  RH  085%=      5-min Rain = 0
KWE3 170428Z 32007KT 05/03 A3015 RMK A01 T00540031  RH  085%=      5-min Rain = 0
KWE3 170429Z 32007KT 05/03 A3015 RMK A01 T00540031  RH  085%=      5-min Rain = 0
KWE3 170430Z 32007KT 05/03 A3015 RMK A01 T00540031  RH  085%=      5-min Rain = 0
KWE3 170431Z 32007KT 05/03 A3015 RMK A01 T00540031  RH  085%=      5-min Rain = 0
KWE3 170432Z 32007KT 05/03 A3015 RMK A01 T00540031  RH  085%=      5-min Rain = 0
KWE3 170433Z 32007KT 05/03 A3015 RMK A01 T00540031  RH  085%=      5-min Rain = 0
KWE3 170434Z 32007KT 06/03 A3015 RMK A01 T00550030  RH  084%=      5-min Rain = 0
KWE3 170435Z 33007KT 06/03 A3015 RMK A01 T00550030  RH  084%=      5-min Rain = 0
KWE3 170436Z 33007KT 06/03 A3015 RMK A01 T00550031  RH  084%=      5-min Rain = 0
KWE3 170437Z 33007KT 06/03 A3015 RMK A01 T00550031  RH  084%=      5-min Rain = 0
KWE3 170438Z 32007KT 06/03 A3015 RMK A01 T00550030  RH  084%=      5-min Rain = 0
KWE3 170439Z 32007KT 06/03 A3015 RMK A01 T00560031  RH  084%=      5-min Rain = 0
KWE3 170440Z 32007KT 06/03 A3015 RMK A01 T00560031  RH  084%=      5-min Rain = 0
KWE3 170441Z 32007KT 06/03 A3015 RMK A01 T00560032  RH  085%=      5-min Rain = 0
KWE3 170442Z 32007KT 06/03 A3015 RMK A01 T00550031  RH  085%=      5-min Rain = 0
KWE3 170443Z 32006KT 06/03 A3015 RMK A01 T00550031  RH  085%=      5-min Rain = 0
KWE3 170444Z 31006KT 06/03 A3015 RMK A01 T00550032  RH  085%=      5-min Rain = 0
KWE3 170445Z 31006KT 06/03 A3015 RMK A01 T00550032  RH  085%=      5-min Rain = 0
KWE3 170446Z 31006KT 05/03 A3015 RMK A01 T00540032  RH  085%=      5-min Rain = 0
KWE3 170447Z 30006KT 05/03 A3015 RMK A01 T00540032  RH  086%=      5-min Rain = 0
KWE3 170448Z 30006KT 05/03 A3015 RMK A01 T00540032  RH  086%=      5-min Rain = 0
KWE3 170449Z 30006KT 05/03 A3014 RMK A01 T00540033  RH  086%=      5-min Rain = 0
KWE3 170450Z 30006KT 05/03 A3014 RMK A01 T00540033  RH  087%=      5-min Rain = 0
KWE3 170451Z 30006KT 05/03 A3014 RMK A01 T00540033  RH  087%=      5-min Rain = 0
KWE3 170452Z 30007KT 05/03 A3014 RMK A01 T00530033  RH  087%=      5-min Rain = 0
KWE3 170453Z 30007KT 05/03 A3014 RMK A01 T00530033  RH  087%=      5-min Rain = 0
KWE3 170454Z 30007KT 05/03 A3014 RMK A01 T00520032  RH  087%=      5-min Rain = 0
KWE3 170455Z 30007KT 05/03 A3014 RMK A01 T00520032  RH  087%=      5-min Rain = 0
KWE3 170456Z 31007KT 05/03 A3014 RMK A01 T00520032  RH  087%=      5-min Rain = 0
KWE3 170457Z 31007KT 05/03 A3014 RMK A01 T00510032  RH  088%=      5-min Rain = 0
KWE3 170458Z 31006KT 05/03 A3014 RMK A01 T00510032  RH  088%=      5-min Rain = 0
KWE3 170459Z 31007KT 05/03 A3014 RMK A01 T00510032  RH  088%=      5-min Rain = 0

Page generated in 0.1123 seconds.